<?xml version="1.0" encoding="UTF-8" standalone="no" ?>
<gpx xmlns="http://www.topografix.com/GPX/1/1" xmlns:xsi="http://www.w3.org/2001/XMLSchema-instance" xsi:schemaLocation="http://www.topografix.com/GPX/1/1 http://www.topografix.com/GPX/1/1/gpx.xsd" version="1.1" creator="VisuGPX - https://www.visugpx.com">
  <metadata>
    <name>Vendée - Auvergne et les 100 marches </name>
    <desc><![CDATA[AVF Antony
Vendée - Auvergne et les 100 marches ]]></desc>
  </metadata>
  <trk>
    <name><![CDATA[OR-7833570--Arbonne-la-Forêt:Vendée - Auvergne et les 100 marches]]></name>
    <trkseg>
      <trkpt lat="48.40128" lon="2.5467">
        <ele>79</ele>
        <time>2017-08-23T10:19:22Z</time>
      </trkpt>
      <trkpt lat="48.40119" lon="2.54689">
        <ele>78</ele>
        <time>2017-08-23T10:21:22Z</time>
      </trkpt>
      <trkpt lat="48.40076" lon="2.5467">
        <ele>76</ele>
        <time>2017-08-23T10:23:22Z</time>
      </trkpt>
      <trkpt lat="48.40048" lon="2.54659">
        <ele>76</ele>
        <time>2017-08-23T10:25:22Z</time>
      </trkpt>
      <trkpt lat="48.39986" lon="2.54635">
        <ele>76</ele>
        <time>2017-08-23T10:27:22Z</time>
      </trkpt>
      <trkpt lat="48.39936" lon="2.54614">
        <ele>76</ele>
        <time>2017-08-23T10:29:22Z</time>
      </trkpt>
      <trkpt lat="48.39898" lon="2.54604">
        <ele>77</ele>
        <time>2017-08-23T10:31:22Z</time>
      </trkpt>
      <trkpt lat="48.39855" lon="2.54586">
        <ele>78</ele>
        <time>2017-08-23T10:33:22Z</time>
      </trkpt>
      <trkpt lat="48.3983" lon="2.54577">
        <ele>79</ele>
        <time>2017-08-23T10:35:22Z</time>
      </trkpt>
      <trkpt lat="48.3979" lon="2.54561">
        <ele>79</ele>
        <time>2017-08-23T10:37:22Z</time>
      </trkpt>
      <trkpt lat="48.39764" lon="2.54548">
        <ele>79</ele>
        <time>2017-08-23T10:39:22Z</time>
      </trkpt>
      <trkpt lat="48.39734" lon="2.54535">
        <ele>79</ele>
        <time>2017-08-23T10:41:22Z</time>
      </trkpt>
      <trkpt lat="48.3971" lon="2.54535">
        <ele>80</ele>
        <time>2017-08-23T10:43:22Z</time>
      </trkpt>
      <trkpt lat="48.39702" lon="2.54519">
        <ele>80</ele>
        <time>2017-08-23T10:45:22Z</time>
      </trkpt>
      <trkpt lat="48.39708" lon="2.54485">
        <ele>80</ele>
        <time>2017-08-23T10:47:22Z</time>
      </trkpt>
      <trkpt lat="48.39717" lon="2.5446">
        <ele>81</ele>
        <time>2017-08-23T10:49:22Z</time>
      </trkpt>
      <trkpt lat="48.39723" lon="2.54415">
        <ele>81</ele>
        <time>2017-08-23T10:51:22Z</time>
      </trkpt>
      <trkpt lat="48.39732" lon="2.54362">
        <ele>82</ele>
        <time>2017-08-23T10:53:22Z</time>
      </trkpt>
      <trkpt lat="48.3972" lon="2.54333">
        <ele>83</ele>
        <time>2017-08-23T10:55:22Z</time>
      </trkpt>
      <trkpt lat="48.39712" lon="2.54308">
        <ele>85</ele>
        <time>2017-08-23T10:57:22Z</time>
      </trkpt>
      <trkpt lat="48.39702" lon="2.54285">
        <ele>87</ele>
        <time>2017-08-23T10:59:22Z</time>
      </trkpt>
      <trkpt lat="48.39695" lon="2.54251">
        <ele>89</ele>
        <time>2017-08-23T11:01:22Z</time>
      </trkpt>
      <trkpt lat="48.39686" lon="2.54216">
        <ele>90</ele>
        <time>2017-08-23T11:03:22Z</time>
      </trkpt>
      <trkpt lat="48.3968" lon="2.54185">
        <ele>90</ele>
        <time>2017-08-23T11:05:22Z</time>
      </trkpt>
      <trkpt lat="48.39676" lon="2.54161">
        <ele>91</ele>
        <time>2017-08-23T11:07:22Z</time>
      </trkpt>
      <trkpt lat="48.39697" lon="2.54142">
        <ele>90</ele>
        <time>2017-08-23T11:09:22Z</time>
      </trkpt>
      <trkpt lat="48.39715" lon="2.54128">
        <ele>88</ele>
        <time>2017-08-23T11:11:22Z</time>
      </trkpt>
      <trkpt lat="48.39732" lon="2.54113">
        <ele>87</ele>
        <time>2017-08-23T11:13:22Z</time>
      </trkpt>
      <trkpt lat="48.3975" lon="2.54096">
        <ele>85</ele>
        <time>2017-08-23T11:15:22Z</time>
      </trkpt>
      <trkpt lat="48.39764" lon="2.54078">
        <ele>86</ele>
        <time>2017-08-23T11:17:22Z</time>
      </trkpt>
      <trkpt lat="48.39777" lon="2.54069">
        <ele>86</ele>
        <time>2017-08-23T11:19:22Z</time>
      </trkpt>
      <trkpt lat="48.39777" lon="2.54047">
        <ele>86</ele>
        <time>2017-08-23T11:21:22Z</time>
      </trkpt>
      <trkpt lat="48.39777" lon="2.54011">
        <ele>86</ele>
        <time>2017-08-23T11:23:22Z</time>
      </trkpt>
      <trkpt lat="48.39782" lon="2.53979">
        <ele>87</ele>
        <time>2017-08-23T11:25:22Z</time>
      </trkpt>
      <trkpt lat="48.39784" lon="2.53949">
        <ele>87</ele>
        <time>2017-08-23T11:27:22Z</time>
      </trkpt>
      <trkpt lat="48.39785" lon="2.53914">
        <ele>88</ele>
        <time>2017-08-23T11:29:22Z</time>
      </trkpt>
      <trkpt lat="48.39786" lon="2.53888">
        <ele>89</ele>
        <time>2017-08-23T11:31:22Z</time>
      </trkpt>
      <trkpt lat="48.39787" lon="2.53869">
        <ele>89</ele>
        <time>2017-08-23T11:33:22Z</time>
      </trkpt>
      <trkpt lat="48.39784" lon="2.53838">
        <ele>90</ele>
        <time>2017-08-23T11:35:22Z</time>
      </trkpt>
      <trkpt lat="48.39783" lon="2.53811">
        <ele>91</ele>
        <time>2017-08-23T11:37:22Z</time>
      </trkpt>
      <trkpt lat="48.39785" lon="2.5378">
        <ele>92</ele>
        <time>2017-08-23T11:39:22Z</time>
      </trkpt>
      <trkpt lat="48.39786" lon="2.53757">
        <ele>93</ele>
        <time>2017-08-23T11:41:22Z</time>
      </trkpt>
      <trkpt lat="48.39786" lon="2.53723">
        <ele>94</ele>
        <time>2017-08-23T11:43:22Z</time>
      </trkpt>
      <trkpt lat="48.39789" lon="2.53694">
        <ele>95</ele>
        <time>2017-08-23T11:45:22Z</time>
      </trkpt>
      <trkpt lat="48.39796" lon="2.53657">
        <ele>97</ele>
        <time>2017-08-23T11:47:22Z</time>
      </trkpt>
      <trkpt lat="48.398" lon="2.53623">
        <ele>98</ele>
        <time>2017-08-23T11:49:22Z</time>
      </trkpt>
      <trkpt lat="48.39804" lon="2.5359">
        <ele>99</ele>
        <time>2017-08-23T11:51:22Z</time>
      </trkpt>
      <trkpt lat="48.39809" lon="2.53554">
        <ele>99</ele>
        <time>2017-08-23T11:53:22Z</time>
      </trkpt>
      <trkpt lat="48.39814" lon="2.53528">
        <ele>99</ele>
        <time>2017-08-23T11:55:22Z</time>
      </trkpt>
      <trkpt lat="48.39833" lon="2.53506">
        <ele>97</ele>
        <time>2017-08-23T11:57:22Z</time>
      </trkpt>
      <trkpt lat="48.39841" lon="2.53486">
        <ele>98</ele>
        <time>2017-08-23T11:59:22Z</time>
      </trkpt>
      <trkpt lat="48.39854" lon="2.53459">
        <ele>98</ele>
        <time>2017-08-23T12:01:22Z</time>
      </trkpt>
      <trkpt lat="48.39862" lon="2.53433">
        <ele>99</ele>
        <time>2017-08-23T12:03:22Z</time>
      </trkpt>
      <trkpt lat="48.39869" lon="2.53403">
        <ele>98</ele>
        <time>2017-08-23T12:05:22Z</time>
      </trkpt>
      <trkpt lat="48.3987" lon="2.53376">
        <ele>97</ele>
        <time>2017-08-23T12:07:22Z</time>
      </trkpt>
      <trkpt lat="48.39871" lon="2.53347">
        <ele>96</ele>
        <time>2017-08-23T12:09:22Z</time>
      </trkpt>
      <trkpt lat="48.39873" lon="2.53325">
        <ele>95</ele>
        <time>2017-08-23T12:11:22Z</time>
      </trkpt>
      <trkpt lat="48.3988" lon="2.53304">
        <ele>93</ele>
        <time>2017-08-23T12:13:22Z</time>
      </trkpt>
      <trkpt lat="48.39883" lon="2.53282">
        <ele>91</ele>
        <time>2017-08-23T12:15:22Z</time>
      </trkpt>
      <trkpt lat="48.3989" lon="2.53244">
        <ele>89</ele>
        <time>2017-08-23T12:17:22Z</time>
      </trkpt>
      <trkpt lat="48.39903" lon="2.53253">
        <ele>88</ele>
        <time>2017-08-23T12:19:22Z</time>
      </trkpt>
      <trkpt lat="48.39913" lon="2.5327">
        <ele>88</ele>
        <time>2017-08-23T12:21:22Z</time>
      </trkpt>
      <trkpt lat="48.39917" lon="2.53298">
        <ele>89</ele>
        <time>2017-08-23T12:23:22Z</time>
      </trkpt>
      <trkpt lat="48.3992" lon="2.53327">
        <ele>92</ele>
        <time>2017-08-23T12:25:22Z</time>
      </trkpt>
      <trkpt lat="48.3993" lon="2.53341">
        <ele>94</ele>
        <time>2017-08-23T12:27:22Z</time>
      </trkpt>
      <trkpt lat="48.39944" lon="2.53351">
        <ele>97</ele>
        <time>2017-08-23T12:29:22Z</time>
      </trkpt>
      <trkpt lat="48.3996" lon="2.53355">
        <ele>99</ele>
        <time>2017-08-23T12:31:22Z</time>
      </trkpt>
      <trkpt lat="48.39977" lon="2.53353">
        <ele>101</ele>
        <time>2017-08-23T12:33:22Z</time>
      </trkpt>
      <trkpt lat="48.3999" lon="2.53352">
        <ele>103</ele>
        <time>2017-08-23T12:35:22Z</time>
      </trkpt>
      <trkpt lat="48.39998" lon="2.53373">
        <ele>106</ele>
        <time>2017-08-23T12:37:22Z</time>
      </trkpt>
      <trkpt lat="48.40004" lon="2.53387">
        <ele>109</ele>
        <time>2017-08-23T12:39:22Z</time>
      </trkpt>
      <trkpt lat="48.40015" lon="2.53407">
        <ele>113</ele>
        <time>2017-08-23T12:41:22Z</time>
      </trkpt>
      <trkpt lat="48.40016" lon="2.53383">
        <ele>110</ele>
        <time>2017-08-23T12:43:22Z</time>
      </trkpt>
      <trkpt lat="48.40014" lon="2.53359">
        <ele>107</ele>
        <time>2017-08-23T12:45:22Z</time>
      </trkpt>
      <trkpt lat="48.40008" lon="2.53342">
        <ele>104</ele>
        <time>2017-08-23T12:47:22Z</time>
      </trkpt>
      <trkpt lat="48.40009" lon="2.53318">
        <ele>102</ele>
        <time>2017-08-23T12:49:22Z</time>
      </trkpt>
      <trkpt lat="48.40005" lon="2.53295">
        <ele>100</ele>
        <time>2017-08-23T12:51:22Z</time>
      </trkpt>
      <trkpt lat="48.3999" lon="2.53276">
        <ele>96</ele>
        <time>2017-08-23T12:53:22Z</time>
      </trkpt>
      <trkpt lat="48.39973" lon="2.5326">
        <ele>93</ele>
        <time>2017-08-23T12:55:22Z</time>
      </trkpt>
      <trkpt lat="48.39959" lon="2.53249">
        <ele>91</ele>
        <time>2017-08-23T12:57:22Z</time>
      </trkpt>
      <trkpt lat="48.39943" lon="2.53232">
        <ele>88</ele>
        <time>2017-08-23T12:59:22Z</time>
      </trkpt>
      <trkpt lat="48.39924" lon="2.53219">
        <ele>86</ele>
        <time>2017-08-23T13:01:22Z</time>
      </trkpt>
      <trkpt lat="48.39913" lon="2.53213">
        <ele>86</ele>
        <time>2017-08-23T13:03:22Z</time>
      </trkpt>
      <trkpt lat="48.39897" lon="2.53201">
        <ele>87</ele>
        <time>2017-08-23T13:05:22Z</time>
      </trkpt>
      <trkpt lat="48.39897" lon="2.53178">
        <ele>87</ele>
        <time>2017-08-23T13:07:22Z</time>
      </trkpt>
      <trkpt lat="48.39902" lon="2.53153">
        <ele>86</ele>
        <time>2017-08-23T13:09:22Z</time>
      </trkpt>
      <trkpt lat="48.3991" lon="2.5312">
        <ele>85</ele>
        <time>2017-08-23T13:11:22Z</time>
      </trkpt>
      <trkpt lat="48.39918" lon="2.53081">
        <ele>83</ele>
        <time>2017-08-23T13:13:22Z</time>
      </trkpt>
      <trkpt lat="48.39929" lon="2.53035">
        <ele>83</ele>
        <time>2017-08-23T13:15:22Z</time>
      </trkpt>
      <trkpt lat="48.39933" lon="2.53">
        <ele>83</ele>
        <time>2017-08-23T13:17:22Z</time>
      </trkpt>
      <trkpt lat="48.3994" lon="2.52972">
        <ele>83</ele>
        <time>2017-08-23T13:19:22Z</time>
      </trkpt>
      <trkpt lat="48.39947" lon="2.52943">
        <ele>84</ele>
        <time>2017-08-23T13:21:22Z</time>
      </trkpt>
      <trkpt lat="48.39957" lon="2.52908">
        <ele>84</ele>
        <time>2017-08-23T13:23:22Z</time>
      </trkpt>
      <trkpt lat="48.39964" lon="2.52885">
        <ele>83</ele>
        <time>2017-08-23T13:25:22Z</time>
      </trkpt>
      <trkpt lat="48.39969" lon="2.52855">
        <ele>82</ele>
        <time>2017-08-23T13:27:22Z</time>
      </trkpt>
      <trkpt lat="48.39974" lon="2.52834">
        <ele>82</ele>
        <time>2017-08-23T13:29:22Z</time>
      </trkpt>
      <trkpt lat="48.39978" lon="2.52811">
        <ele>81</ele>
        <time>2017-08-23T13:31:22Z</time>
      </trkpt>
      <trkpt lat="48.39987" lon="2.52781">
        <ele>80</ele>
        <time>2017-08-23T13:33:22Z</time>
      </trkpt>
      <trkpt lat="48.39998" lon="2.52754">
        <ele>78</ele>
        <time>2017-08-23T13:35:22Z</time>
      </trkpt>
      <trkpt lat="48.40006" lon="2.52729">
        <ele>77</ele>
        <time>2017-08-23T13:37:22Z</time>
      </trkpt>
      <trkpt lat="48.4001" lon="2.52701">
        <ele>77</ele>
        <time>2017-08-23T13:39:22Z</time>
      </trkpt>
      <trkpt lat="48.40019" lon="2.52678">
        <ele>76</ele>
        <time>2017-08-23T13:41:22Z</time>
      </trkpt>
      <trkpt lat="48.40024" lon="2.52657">
        <ele>76</ele>
        <time>2017-08-23T13:43:22Z</time>
      </trkpt>
      <trkpt lat="48.40044" lon="2.52668">
        <ele>77</ele>
        <time>2017-08-23T13:45:22Z</time>
      </trkpt>
      <trkpt lat="48.40066" lon="2.52681">
        <ele>77</ele>
        <time>2017-08-23T13:47:22Z</time>
      </trkpt>
      <trkpt lat="48.40084" lon="2.527">
        <ele>77</ele>
        <time>2017-08-23T13:49:22Z</time>
      </trkpt>
      <trkpt lat="48.40102" lon="2.52718">
        <ele>78</ele>
        <time>2017-08-23T13:51:22Z</time>
      </trkpt>
      <trkpt lat="48.40116" lon="2.52733">
        <ele>78</ele>
        <time>2017-08-23T13:53:22Z</time>
      </trkpt>
      <trkpt lat="48.40126" lon="2.52743">
        <ele>79</ele>
        <time>2017-08-23T13:55:22Z</time>
      </trkpt>
      <trkpt lat="48.40138" lon="2.52765">
        <ele>79</ele>
        <time>2017-08-23T13:57:22Z</time>
      </trkpt>
      <trkpt lat="48.40151" lon="2.52786">
        <ele>80</ele>
        <time>2017-08-23T13:59:22Z</time>
      </trkpt>
      <trkpt lat="48.40161" lon="2.52805">
        <ele>81</ele>
        <time>2017-08-23T14:01:22Z</time>
      </trkpt>
      <trkpt lat="48.4017" lon="2.52825">
        <ele>81</ele>
        <time>2017-08-23T14:03:22Z</time>
      </trkpt>
      <trkpt lat="48.40181" lon="2.52842">
        <ele>82</ele>
        <time>2017-08-23T14:05:22Z</time>
      </trkpt>
      <trkpt lat="48.4019" lon="2.52859">
        <ele>83</ele>
        <time>2017-08-23T14:07:22Z</time>
      </trkpt>
      <trkpt lat="48.40191" lon="2.52877">
        <ele>84</ele>
        <time>2017-08-23T14:09:22Z</time>
      </trkpt>
      <trkpt lat="48.40195" lon="2.52897">
        <ele>85</ele>
        <time>2017-08-23T14:11:22Z</time>
      </trkpt>
      <trkpt lat="48.40207" lon="2.52901">
        <ele>85</ele>
        <time>2017-08-23T14:13:22Z</time>
      </trkpt>
      <trkpt lat="48.4022" lon="2.52907">
        <ele>86</ele>
        <time>2017-08-23T14:15:22Z</time>
      </trkpt>
      <trkpt lat="48.40224" lon="2.52928">
        <ele>88</ele>
        <time>2017-08-23T14:17:22Z</time>
      </trkpt>
      <trkpt lat="48.40225" lon="2.52959">
        <ele>91</ele>
        <time>2017-08-23T14:19:22Z</time>
      </trkpt>
      <trkpt lat="48.40225" lon="2.52988">
        <ele>94</ele>
        <time>2017-08-23T14:21:22Z</time>
      </trkpt>
      <trkpt lat="48.40227" lon="2.53014">
        <ele>97</ele>
        <time>2017-08-23T14:23:22Z</time>
      </trkpt>
      <trkpt lat="48.40224" lon="2.53035">
        <ele>101</ele>
        <time>2017-08-23T14:25:22Z</time>
      </trkpt>
      <trkpt lat="48.40212" lon="2.53059">
        <ele>105</ele>
        <time>2017-08-23T14:27:22Z</time>
      </trkpt>
      <trkpt lat="48.40199" lon="2.5308">
        <ele>108</ele>
        <time>2017-08-23T14:29:22Z</time>
      </trkpt>
      <trkpt lat="48.4019" lon="2.53098">
        <ele>110</ele>
        <time>2017-08-23T14:31:22Z</time>
      </trkpt>
      <trkpt lat="48.40177" lon="2.53133">
        <ele>115</ele>
        <time>2017-08-23T14:33:22Z</time>
      </trkpt>
      <trkpt lat="48.40161" lon="2.53161">
        <ele>117</ele>
        <time>2017-08-23T14:35:22Z</time>
      </trkpt>
      <trkpt lat="48.4015" lon="2.53191">
        <ele>118</ele>
        <time>2017-08-23T14:37:22Z</time>
      </trkpt>
      <trkpt lat="48.40143" lon="2.5321">
        <ele>118</ele>
        <time>2017-08-23T14:39:22Z</time>
      </trkpt>
      <trkpt lat="48.40134" lon="2.53231">
        <ele>118</ele>
        <time>2017-08-23T14:41:22Z</time>
      </trkpt>
      <trkpt lat="48.40126" lon="2.53258">
        <ele>118</ele>
        <time>2017-08-23T14:43:22Z</time>
      </trkpt>
      <trkpt lat="48.4012" lon="2.53286">
        <ele>118</ele>
        <time>2017-08-23T14:45:22Z</time>
      </trkpt>
      <trkpt lat="48.40113" lon="2.53323">
        <ele>119</ele>
        <time>2017-08-23T14:47:22Z</time>
      </trkpt>
      <trkpt lat="48.40111" lon="2.53349">
        <ele>120</ele>
        <time>2017-08-23T14:49:22Z</time>
      </trkpt>
      <trkpt lat="48.4011" lon="2.53374">
        <ele>121</ele>
        <time>2017-08-23T14:51:22Z</time>
      </trkpt>
      <trkpt lat="48.40113" lon="2.53412">
        <ele>124</ele>
        <time>2017-08-23T14:53:22Z</time>
      </trkpt>
      <trkpt lat="48.40116" lon="2.5344">
        <ele>125</ele>
        <time>2017-08-23T14:55:22Z</time>
      </trkpt>
      <trkpt lat="48.40121" lon="2.53482">
        <ele>126</ele>
        <time>2017-08-23T14:57:22Z</time>
      </trkpt>
      <trkpt lat="48.40134" lon="2.53487">
        <ele>126</ele>
        <time>2017-08-23T14:59:22Z</time>
      </trkpt>
      <trkpt lat="48.40146" lon="2.53491">
        <ele>126</ele>
        <time>2017-08-23T15:01:22Z</time>
      </trkpt>
      <trkpt lat="48.4016" lon="2.53494">
        <ele>126</ele>
        <time>2017-08-23T15:03:22Z</time>
      </trkpt>
      <trkpt lat="48.40175" lon="2.535">
        <ele>125</ele>
        <time>2017-08-23T15:05:22Z</time>
      </trkpt>
      <trkpt lat="48.40192" lon="2.53493">
        <ele>124</ele>
        <time>2017-08-23T15:07:22Z</time>
      </trkpt>
      <trkpt lat="48.40207" lon="2.5349">
        <ele>122</ele>
        <time>2017-08-23T15:09:22Z</time>
      </trkpt>
      <trkpt lat="48.40223" lon="2.53495">
        <ele>121</ele>
        <time>2017-08-23T15:11:22Z</time>
      </trkpt>
      <trkpt lat="48.40235" lon="2.53517">
        <ele>118</ele>
        <time>2017-08-23T15:13:22Z</time>
      </trkpt>
      <trkpt lat="48.40235" lon="2.53544">
        <ele>116</ele>
        <time>2017-08-23T15:15:22Z</time>
      </trkpt>
      <trkpt lat="48.40232" lon="2.53573">
        <ele>115</ele>
        <time>2017-08-23T15:17:22Z</time>
      </trkpt>
      <trkpt lat="48.40228" lon="2.5361">
        <ele>113</ele>
        <time>2017-08-23T15:19:22Z</time>
      </trkpt>
      <trkpt lat="48.40226" lon="2.53642">
        <ele>110</ele>
        <time>2017-08-23T15:21:22Z</time>
      </trkpt>
      <trkpt lat="48.40222" lon="2.53675">
        <ele>109</ele>
        <time>2017-08-23T15:23:22Z</time>
      </trkpt>
      <trkpt lat="48.40225" lon="2.53703">
        <ele>107</ele>
        <time>2017-08-23T15:25:22Z</time>
      </trkpt>
      <trkpt lat="48.40222" lon="2.53726">
        <ele>106</ele>
        <time>2017-08-23T15:27:22Z</time>
      </trkpt>
      <trkpt lat="48.40212" lon="2.53747">
        <ele>107</ele>
        <time>2017-08-23T15:29:22Z</time>
      </trkpt>
      <trkpt lat="48.40223" lon="2.53772">
        <ele>104</ele>
        <time>2017-08-23T15:31:22Z</time>
      </trkpt>
      <trkpt lat="48.40234" lon="2.53799">
        <ele>102</ele>
        <time>2017-08-23T15:33:22Z</time>
      </trkpt>
      <trkpt lat="48.40244" lon="2.53823">
        <ele>101</ele>
        <time>2017-08-23T15:35:22Z</time>
      </trkpt>
      <trkpt lat="48.40252" lon="2.5384">
        <ele>100</ele>
        <time>2017-08-23T15:37:22Z</time>
      </trkpt>
      <trkpt lat="48.40262" lon="2.53868">
        <ele>98</ele>
        <time>2017-08-23T15:39:22Z</time>
      </trkpt>
      <trkpt lat="48.4027" lon="2.53893">
        <ele>97</ele>
        <time>2017-08-23T15:41:22Z</time>
      </trkpt>
      <trkpt lat="48.40283" lon="2.53921">
        <ele>95</ele>
        <time>2017-08-23T15:43:22Z</time>
      </trkpt>
      <trkpt lat="48.40292" lon="2.53947">
        <ele>94</ele>
        <time>2017-08-23T15:45:22Z</time>
      </trkpt>
      <trkpt lat="48.40306" lon="2.53982">
        <ele>94</ele>
        <time>2017-08-23T15:47:22Z</time>
      </trkpt>
      <trkpt lat="48.40301" lon="2.54008">
        <ele>93</ele>
        <time>2017-08-23T15:49:22Z</time>
      </trkpt>
      <trkpt lat="48.40293" lon="2.54052">
        <ele>91</ele>
        <time>2017-08-23T15:51:22Z</time>
      </trkpt>
      <trkpt lat="48.40284" lon="2.54096">
        <ele>90</ele>
        <time>2017-08-23T15:53:22Z</time>
      </trkpt>
      <trkpt lat="48.40277" lon="2.54132">
        <ele>89</ele>
        <time>2017-08-23T15:55:22Z</time>
      </trkpt>
      <trkpt lat="48.40269" lon="2.54166">
        <ele>89</ele>
        <time>2017-08-23T15:57:22Z</time>
      </trkpt>
      <trkpt lat="48.40261" lon="2.54198">
        <ele>88</ele>
        <time>2017-08-23T15:59:22Z</time>
      </trkpt>
      <trkpt lat="48.4028" lon="2.54211">
        <ele>88</ele>
        <time>2017-08-23T16:01:22Z</time>
      </trkpt>
      <trkpt lat="48.40302" lon="2.54214">
        <ele>88</ele>
        <time>2017-08-23T16:03:22Z</time>
      </trkpt>
      <trkpt lat="48.40326" lon="2.54225">
        <ele>88</ele>
        <time>2017-08-23T16:05:22Z</time>
      </trkpt>
      <trkpt lat="48.40341" lon="2.5423">
        <ele>89</ele>
        <time>2017-08-23T16:07:22Z</time>
      </trkpt>
      <trkpt lat="48.40354" lon="2.54226">
        <ele>90</ele>
        <time>2017-08-23T16:09:22Z</time>
      </trkpt>
      <trkpt lat="48.40362" lon="2.54205">
        <ele>91</ele>
        <time>2017-08-23T16:11:22Z</time>
      </trkpt>
      <trkpt lat="48.40372" lon="2.54188">
        <ele>92</ele>
        <time>2017-08-23T16:13:22Z</time>
      </trkpt>
      <trkpt lat="48.40401" lon="2.54194">
        <ele>94</ele>
        <time>2017-08-23T16:15:22Z</time>
      </trkpt>
      <trkpt lat="48.40418" lon="2.542">
        <ele>96</ele>
        <time>2017-08-23T16:17:22Z</time>
      </trkpt>
      <trkpt lat="48.40435" lon="2.54202">
        <ele>96</ele>
        <time>2017-08-23T16:19:22Z</time>
      </trkpt>
      <trkpt lat="48.40448" lon="2.54193">
        <ele>96</ele>
        <time>2017-08-23T16:21:22Z</time>
      </trkpt>
      <trkpt lat="48.4046" lon="2.5419">
        <ele>96</ele>
        <time>2017-08-23T16:23:22Z</time>
      </trkpt>
      <trkpt lat="48.40472" lon="2.54206">
        <ele>96</ele>
        <time>2017-08-23T16:25:22Z</time>
      </trkpt>
      <trkpt lat="48.40485" lon="2.54212">
        <ele>96</ele>
        <time>2017-08-23T16:27:22Z</time>
      </trkpt>
      <trkpt lat="48.405" lon="2.54194">
        <ele>96</ele>
        <time>2017-08-23T16:29:22Z</time>
      </trkpt>
      <trkpt lat="48.4052" lon="2.54183">
        <ele>93</ele>
        <time>2017-08-23T16:31:22Z</time>
      </trkpt>
      <trkpt lat="48.40531" lon="2.54163">
        <ele>91</ele>
        <time>2017-08-23T16:33:22Z</time>
      </trkpt>
      <trkpt lat="48.40548" lon="2.54142">
        <ele>88</ele>
        <time>2017-08-23T16:35:22Z</time>
      </trkpt>
      <trkpt lat="48.40563" lon="2.54142">
        <ele>86</ele>
        <time>2017-08-23T16:37:22Z</time>
      </trkpt>
      <trkpt lat="48.40587" lon="2.54149">
        <ele>82</ele>
        <time>2017-08-23T16:39:22Z</time>
      </trkpt>
      <trkpt lat="48.40604" lon="2.54148">
        <ele>81</ele>
        <time>2017-08-23T16:41:22Z</time>
      </trkpt>
      <trkpt lat="48.40626" lon="2.54139">
        <ele>80</ele>
        <time>2017-08-23T16:43:22Z</time>
      </trkpt>
      <trkpt lat="48.40651" lon="2.54128">
        <ele>79</ele>
        <time>2017-08-23T16:45:22Z</time>
      </trkpt>
      <trkpt lat="48.4068" lon="2.5411">
        <ele>78</ele>
        <time>2017-08-23T16:47:22Z</time>
      </trkpt>
      <trkpt lat="48.40697" lon="2.54098">
        <ele>78</ele>
        <time>2017-08-23T16:49:22Z</time>
      </trkpt>
      <trkpt lat="48.40721" lon="2.54083">
        <ele>77</ele>
        <time>2017-08-23T16:51:22Z</time>
      </trkpt>
      <trkpt lat="48.40738" lon="2.54071">
        <ele>77</ele>
        <time>2017-08-23T16:53:22Z</time>
      </trkpt>
      <trkpt lat="48.40757" lon="2.54061">
        <ele>77</ele>
        <time>2017-08-23T16:55:22Z</time>
      </trkpt>
      <trkpt lat="48.40779" lon="2.54046">
        <ele>77</ele>
        <time>2017-08-23T16:57:22Z</time>
      </trkpt>
      <trkpt lat="48.40809" lon="2.54024">
        <ele>78</ele>
        <time>2017-08-23T16:59:22Z</time>
      </trkpt>
      <trkpt lat="48.40834" lon="2.54008">
        <ele>78</ele>
        <time>2017-08-23T17:01:22Z</time>
      </trkpt>
      <trkpt lat="48.40857" lon="2.53999">
        <ele>78</ele>
        <time>2017-08-23T17:03:22Z</time>
      </trkpt>
      <trkpt lat="48.40878" lon="2.53988">
        <ele>79</ele>
        <time>2017-08-23T17:05:22Z</time>
      </trkpt>
      <trkpt lat="48.409" lon="2.5398">
        <ele>79</ele>
        <time>2017-08-23T17:07:22Z</time>
      </trkpt>
      <trkpt lat="48.4092" lon="2.53977">
        <ele>79</ele>
        <time>2017-08-23T17:09:22Z</time>
      </trkpt>
      <trkpt lat="48.40947" lon="2.53973">
        <ele>79</ele>
        <time>2017-08-23T17:11:22Z</time>
      </trkpt>
      <trkpt lat="48.40976" lon="2.53965">
        <ele>78</ele>
        <time>2017-08-23T17:13:22Z</time>
      </trkpt>
      <trkpt lat="48.41003" lon="2.53959">
        <ele>78</ele>
        <time>2017-08-23T17:15:22Z</time>
      </trkpt>
      <trkpt lat="48.41032" lon="2.53951">
        <ele>78</ele>
        <time>2017-08-23T17:17:22Z</time>
      </trkpt>
      <trkpt lat="48.41051" lon="2.53945">
        <ele>78</ele>
        <time>2017-08-23T17:19:22Z</time>
      </trkpt>
      <trkpt lat="48.41067" lon="2.53942">
        <ele>78</ele>
        <time>2017-08-23T17:21:22Z</time>
      </trkpt>
      <trkpt lat="48.41082" lon="2.53935">
        <ele>78</ele>
        <time>2017-08-23T17:23:22Z</time>
      </trkpt>
      <trkpt lat="48.41094" lon="2.53919">
        <ele>79</ele>
        <time>2017-08-23T17:25:22Z</time>
      </trkpt>
      <trkpt lat="48.41106" lon="2.53903">
        <ele>79</ele>
        <time>2017-08-23T17:27:22Z</time>
      </trkpt>
      <trkpt lat="48.41123" lon="2.53894">
        <ele>80</ele>
        <time>2017-08-23T17:29:22Z</time>
      </trkpt>
      <trkpt lat="48.41146" lon="2.53889">
        <ele>81</ele>
        <time>2017-08-23T17:31:22Z</time>
      </trkpt>
      <trkpt lat="48.41165" lon="2.53887">
        <ele>81</ele>
        <time>2017-08-23T17:33:22Z</time>
      </trkpt>
      <trkpt lat="48.41185" lon="2.53885">
        <ele>83</ele>
        <time>2017-08-23T17:35:22Z</time>
      </trkpt>
      <trkpt lat="48.412" lon="2.53864">
        <ele>83</ele>
        <time>2017-08-23T17:37:22Z</time>
      </trkpt>
      <trkpt lat="48.41212" lon="2.53837">
        <ele>83</ele>
        <time>2017-08-23T17:39:22Z</time>
      </trkpt>
      <trkpt lat="48.41224" lon="2.53819">
        <ele>84</ele>
        <time>2017-08-23T17:41:22Z</time>
      </trkpt>
      <trkpt lat="48.4124" lon="2.53804">
        <ele>86</ele>
        <time>2017-08-23T17:43:22Z</time>
      </trkpt>
      <trkpt lat="48.41252" lon="2.5379">
        <ele>86</ele>
        <time>2017-08-23T17:45:22Z</time>
      </trkpt>
      <trkpt lat="48.4127" lon="2.53774">
        <ele>86</ele>
        <time>2017-08-23T17:47:22Z</time>
      </trkpt>
      <trkpt lat="48.41289" lon="2.53764">
        <ele>86</ele>
        <time>2017-08-23T17:49:22Z</time>
      </trkpt>
      <trkpt lat="48.41305" lon="2.53742">
        <ele>86</ele>
        <time>2017-08-23T17:51:22Z</time>
      </trkpt>
      <trkpt lat="48.4132" lon="2.53725">
        <ele>87</ele>
        <time>2017-08-23T17:53:22Z</time>
      </trkpt>
      <trkpt lat="48.41336" lon="2.53712">
        <ele>87</ele>
        <time>2017-08-23T17:55:22Z</time>
      </trkpt>
      <trkpt lat="48.4135" lon="2.537">
        <ele>86</ele>
        <time>2017-08-23T17:57:22Z</time>
      </trkpt>
      <trkpt lat="48.41364" lon="2.53691">
        <ele>85</ele>
        <time>2017-08-23T17:59:22Z</time>
      </trkpt>
      <trkpt lat="48.41374" lon="2.53691">
        <ele>84</ele>
        <time>2017-08-23T18:01:22Z</time>
      </trkpt>
      <trkpt lat="48.41389" lon="2.53669">
        <ele>83</ele>
        <time>2017-08-23T18:03:22Z</time>
      </trkpt>
      <trkpt lat="48.41408" lon="2.53651">
        <ele>82</ele>
        <time>2017-08-23T18:05:22Z</time>
      </trkpt>
      <trkpt lat="48.4143" lon="2.53633">
        <ele>82</ele>
        <time>2017-08-23T18:07:22Z</time>
      </trkpt>
      <trkpt lat="48.41448" lon="2.53635">
        <ele>81</ele>
        <time>2017-08-23T18:09:22Z</time>
      </trkpt>
      <trkpt lat="48.41468" lon="2.53636">
        <ele>81</ele>
        <time>2017-08-23T18:11:22Z</time>
      </trkpt>
      <trkpt lat="48.41487" lon="2.53644">
        <ele>80</ele>
        <time>2017-08-23T18:13:22Z</time>
      </trkpt>
      <trkpt lat="48.41499" lon="2.53649">
        <ele>80</ele>
        <time>2017-08-23T18:15:22Z</time>
      </trkpt>
      <trkpt lat="48.41512" lon="2.53647">
        <ele>80</ele>
        <time>2017-08-23T18:17:22Z</time>
      </trkpt>
      <trkpt lat="48.41522" lon="2.53649">
        <ele>79</ele>
        <time>2017-08-23T18:19:22Z</time>
      </trkpt>
      <trkpt lat="48.41533" lon="2.53641">
        <ele>78</ele>
        <time>2017-08-23T18:21:22Z</time>
      </trkpt>
      <trkpt lat="48.41536" lon="2.5362">
        <ele>78</ele>
        <time>2017-08-23T18:23:22Z</time>
      </trkpt>
      <trkpt lat="48.41542" lon="2.53602">
        <ele>78</ele>
        <time>2017-08-23T18:25:22Z</time>
      </trkpt>
      <trkpt lat="48.41557" lon="2.53582">
        <ele>77</ele>
        <time>2017-08-23T18:27:22Z</time>
      </trkpt>
      <trkpt lat="48.41573" lon="2.53566">
        <ele>76</ele>
        <time>2017-08-23T18:29:22Z</time>
      </trkpt>
      <trkpt lat="48.41588" lon="2.53555">
        <ele>76</ele>
        <time>2017-08-23T18:31:22Z</time>
      </trkpt>
      <trkpt lat="48.41606" lon="2.53533">
        <ele>77</ele>
        <time>2017-08-23T18:33:22Z</time>
      </trkpt>
      <trkpt lat="48.41622" lon="2.53518">
        <ele>77</ele>
        <time>2017-08-23T18:35:22Z</time>
      </trkpt>
      <trkpt lat="48.41635" lon="2.53496">
        <ele>77</ele>
        <time>2017-08-23T18:37:22Z</time>
      </trkpt>
      <trkpt lat="48.41623" lon="2.53489">
        <ele>78</ele>
        <time>2017-08-23T18:39:22Z</time>
      </trkpt>
      <trkpt lat="48.41604" lon="2.53486">
        <ele>78</ele>
        <time>2017-08-23T18:41:22Z</time>
      </trkpt>
      <trkpt lat="48.41587" lon="2.53478">
        <ele>79</ele>
        <time>2017-08-23T18:43:22Z</time>
      </trkpt>
      <trkpt lat="48.41573" lon="2.53472">
        <ele>80</ele>
        <time>2017-08-23T18:45:22Z</time>
      </trkpt>
      <trkpt lat="48.41563" lon="2.53458">
        <ele>81</ele>
        <time>2017-08-23T18:47:22Z</time>
      </trkpt>
      <trkpt lat="48.41549" lon="2.53434">
        <ele>82</ele>
        <time>2017-08-23T18:49:22Z</time>
      </trkpt>
      <trkpt lat="48.41539" lon="2.53422">
        <ele>82</ele>
        <time>2017-08-23T18:51:22Z</time>
      </trkpt>
      <trkpt lat="48.41527" lon="2.53405">
        <ele>83</ele>
        <time>2017-08-23T18:53:22Z</time>
      </trkpt>
      <trkpt lat="48.41513" lon="2.53378">
        <ele>84</ele>
        <time>2017-08-23T18:55:22Z</time>
      </trkpt>
      <trkpt lat="48.41499" lon="2.53357">
        <ele>84</ele>
        <time>2017-08-23T18:57:22Z</time>
      </trkpt>
      <trkpt lat="48.4149" lon="2.5334">
        <ele>86</ele>
        <time>2017-08-23T18:59:22Z</time>
      </trkpt>
      <trkpt lat="48.41483" lon="2.53315">
        <ele>88</ele>
        <time>2017-08-23T19:01:22Z</time>
      </trkpt>
      <trkpt lat="48.41477" lon="2.53289">
        <ele>90</ele>
        <time>2017-08-23T19:03:22Z</time>
      </trkpt>
      <trkpt lat="48.41477" lon="2.53264">
        <ele>91</ele>
        <time>2017-08-23T19:05:22Z</time>
      </trkpt>
      <trkpt lat="48.41483" lon="2.53235">
        <ele>92</ele>
        <time>2017-08-23T19:07:22Z</time>
      </trkpt>
      <trkpt lat="48.41489" lon="2.53207">
        <ele>93</ele>
        <time>2017-08-23T19:09:22Z</time>
      </trkpt>
      <trkpt lat="48.41494" lon="2.53178">
        <ele>95</ele>
        <time>2017-08-23T19:11:22Z</time>
      </trkpt>
      <trkpt lat="48.41502" lon="2.5315">
        <ele>96</ele>
        <time>2017-08-23T19:13:22Z</time>
      </trkpt>
      <trkpt lat="48.41503" lon="2.53121">
        <ele>99</ele>
        <time>2017-08-23T19:15:22Z</time>
      </trkpt>
      <trkpt lat="48.41507" lon="2.53088">
        <ele>102</ele>
        <time>2017-08-23T19:17:22Z</time>
      </trkpt>
      <trkpt lat="48.41508" lon="2.53061">
        <ele>104</ele>
        <time>2017-08-23T19:19:22Z</time>
      </trkpt>
      <trkpt lat="48.41511" lon="2.53022">
        <ele>107</ele>
        <time>2017-08-23T19:21:22Z</time>
      </trkpt>
      <trkpt lat="48.41511" lon="2.52987">
        <ele>109</ele>
        <time>2017-08-23T19:23:22Z</time>
      </trkpt>
      <trkpt lat="48.41512" lon="2.52955">
        <ele>111</ele>
        <time>2017-08-23T19:25:22Z</time>
      </trkpt>
      <trkpt lat="48.41513" lon="2.5293">
        <ele>113</ele>
        <time>2017-08-23T19:27:22Z</time>
      </trkpt>
      <trkpt lat="48.41519" lon="2.52911">
        <ele>115</ele>
        <time>2017-08-23T19:29:22Z</time>
      </trkpt>
      <trkpt lat="48.41525" lon="2.52895">
        <ele>116</ele>
        <time>2017-08-23T19:31:22Z</time>
      </trkpt>
      <trkpt lat="48.4152" lon="2.52869">
        <ele>118</ele>
        <time>2017-08-23T19:33:22Z</time>
      </trkpt>
      <trkpt lat="48.41516" lon="2.52837">
        <ele>120</ele>
        <time>2017-08-23T19:35:22Z</time>
      </trkpt>
      <trkpt lat="48.41535" lon="2.5284">
        <ele>120</ele>
        <time>2017-08-23T19:37:22Z</time>
      </trkpt>
      <trkpt lat="48.41553" lon="2.52843">
        <ele>119</ele>
        <time>2017-08-23T19:39:22Z</time>
      </trkpt>
      <trkpt lat="48.41571" lon="2.52847">
        <ele>119</ele>
        <time>2017-08-23T19:41:22Z</time>
      </trkpt>
      <trkpt lat="48.41591" lon="2.52848">
        <ele>118</ele>
        <time>2017-08-23T19:43:22Z</time>
      </trkpt>
      <trkpt lat="48.41609" lon="2.52843">
        <ele>115</ele>
        <time>2017-08-23T19:45:22Z</time>
      </trkpt>
      <trkpt lat="48.41625" lon="2.52838">
        <ele>113</ele>
        <time>2017-08-23T19:47:22Z</time>
      </trkpt>
      <trkpt lat="48.41635" lon="2.52842">
        <ele>111</ele>
        <time>2017-08-23T19:49:22Z</time>
      </trkpt>
      <trkpt lat="48.41646" lon="2.52836">
        <ele>109</ele>
        <time>2017-08-23T19:51:22Z</time>
      </trkpt>
      <trkpt lat="48.41657" lon="2.52827">
        <ele>108</ele>
        <time>2017-08-23T19:53:22Z</time>
      </trkpt>
      <trkpt lat="48.41657" lon="2.52847">
        <ele>107</ele>
        <time>2017-08-23T19:55:22Z</time>
      </trkpt>
      <trkpt lat="48.41656" lon="2.52873">
        <ele>105</ele>
        <time>2017-08-23T19:57:22Z</time>
      </trkpt>
      <trkpt lat="48.41662" lon="2.52901">
        <ele>102</ele>
        <time>2017-08-23T19:59:22Z</time>
      </trkpt>
      <trkpt lat="48.41674" lon="2.52922">
        <ele>99</ele>
        <time>2017-08-23T20:01:22Z</time>
      </trkpt>
      <trkpt lat="48.41689" lon="2.52933">
        <ele>96</ele>
        <time>2017-08-23T20:03:22Z</time>
      </trkpt>
      <trkpt lat="48.41708" lon="2.52934">
        <ele>93</ele>
        <time>2017-08-23T20:05:22Z</time>
      </trkpt>
      <trkpt lat="48.41723" lon="2.52934">
        <ele>90</ele>
        <time>2017-08-23T20:07:22Z</time>
      </trkpt>
      <trkpt lat="48.41739" lon="2.52949">
        <ele>88</ele>
        <time>2017-08-23T20:09:22Z</time>
      </trkpt>
      <trkpt lat="48.41758" lon="2.52963">
        <ele>85</ele>
        <time>2017-08-23T20:11:22Z</time>
      </trkpt>
      <trkpt lat="48.41774" lon="2.52977">
        <ele>84</ele>
        <time>2017-08-23T20:13:22Z</time>
      </trkpt>
      <trkpt lat="48.41786" lon="2.52996">
        <ele>83</ele>
        <time>2017-08-23T20:15:22Z</time>
      </trkpt>
      <trkpt lat="48.41798" lon="2.5301">
        <ele>83</ele>
        <time>2017-08-23T20:17:22Z</time>
      </trkpt>
      <trkpt lat="48.41809" lon="2.53034">
        <ele>82</ele>
        <time>2017-08-23T20:19:22Z</time>
      </trkpt>
      <trkpt lat="48.41816" lon="2.53052">
        <ele>81</ele>
        <time>2017-08-23T20:21:22Z</time>
      </trkpt>
      <trkpt lat="48.41823" lon="2.53069">
        <ele>80</ele>
        <time>2017-08-23T20:23:22Z</time>
      </trkpt>
      <trkpt lat="48.41834" lon="2.5308">
        <ele>79</ele>
        <time>2017-08-23T20:25:22Z</time>
      </trkpt>
      <trkpt lat="48.41843" lon="2.53108">
        <ele>80</ele>
        <time>2017-08-23T20:27:22Z</time>
      </trkpt>
      <trkpt lat="48.41853" lon="2.53127">
        <ele>80</ele>
        <time>2017-08-23T20:29:22Z</time>
      </trkpt>
      <trkpt lat="48.41865" lon="2.53154">
        <ele>81</ele>
        <time>2017-08-23T20:31:22Z</time>
      </trkpt>
      <trkpt lat="48.41875" lon="2.53173">
        <ele>81</ele>
        <time>2017-08-23T20:33:22Z</time>
      </trkpt>
      <trkpt lat="48.41883" lon="2.53192">
        <ele>81</ele>
        <time>2017-08-23T20:35:22Z</time>
      </trkpt>
      <trkpt lat="48.41891" lon="2.53212">
        <ele>81</ele>
        <time>2017-08-23T20:37:22Z</time>
      </trkpt>
      <trkpt lat="48.41904" lon="2.53235">
        <ele>81</ele>
        <time>2017-08-23T20:39:22Z</time>
      </trkpt>
      <trkpt lat="48.41923" lon="2.5324">
        <ele>81</ele>
        <time>2017-08-23T20:41:22Z</time>
      </trkpt>
      <trkpt lat="48.41949" lon="2.53244">
        <ele>80</ele>
        <time>2017-08-23T20:43:22Z</time>
      </trkpt>
      <trkpt lat="48.4197" lon="2.53249">
        <ele>80</ele>
        <time>2017-08-23T20:45:22Z</time>
      </trkpt>
      <trkpt lat="48.41992" lon="2.5325">
        <ele>79</ele>
        <time>2017-08-23T20:47:22Z</time>
      </trkpt>
      <trkpt lat="48.4201" lon="2.53259">
        <ele>79</ele>
        <time>2017-08-23T20:49:22Z</time>
      </trkpt>
      <trkpt lat="48.42028" lon="2.53263">
        <ele>79</ele>
        <time>2017-08-23T20:51:22Z</time>
      </trkpt>
      <trkpt lat="48.42048" lon="2.5327">
        <ele>78</ele>
        <time>2017-08-23T20:53:22Z</time>
      </trkpt>
      <trkpt lat="48.42053" lon="2.53239">
        <ele>78</ele>
        <time>2017-08-23T20:55:22Z</time>
      </trkpt>
      <trkpt lat="48.42068" lon="2.5318">
        <ele>77</ele>
        <time>2017-08-23T20:57:22Z</time>
      </trkpt>
      <trkpt lat="48.4208" lon="2.53127">
        <ele>76</ele>
        <time>2017-08-23T20:59:22Z</time>
      </trkpt>
      <trkpt lat="48.42095" lon="2.5306">
        <ele>75</ele>
        <time>2017-08-23T21:01:22Z</time>
      </trkpt>
      <trkpt lat="48.42107" lon="2.53015">
        <ele>76</ele>
        <time>2017-08-23T21:03:22Z</time>
      </trkpt>
      <trkpt lat="48.42115" lon="2.52976">
        <ele>76</ele>
        <time>2017-08-23T21:05:22Z</time>
      </trkpt>
      <trkpt lat="48.42124" lon="2.52942">
        <ele>76</ele>
        <time>2017-08-23T21:07:22Z</time>
      </trkpt>
      <trkpt lat="48.42136" lon="2.52891">
        <ele>76</ele>
        <time>2017-08-23T21:09:22Z</time>
      </trkpt>
      <trkpt lat="48.42149" lon="2.52839">
        <ele>75</ele>
        <time>2017-08-23T21:11:22Z</time>
      </trkpt>
      <trkpt lat="48.42163" lon="2.52782">
        <ele>75</ele>
        <time>2017-08-23T21:13:22Z</time>
      </trkpt>
      <trkpt lat="48.42177" lon="2.52729">
        <ele>77</ele>
        <time>2017-08-23T21:15:22Z</time>
      </trkpt>
      <trkpt lat="48.42189" lon="2.52682">
        <ele>78</ele>
        <time>2017-08-23T21:17:22Z</time>
      </trkpt>
      <trkpt lat="48.422" lon="2.52635">
        <ele>80</ele>
        <time>2017-08-23T21:19:22Z</time>
      </trkpt>
      <trkpt lat="48.42211" lon="2.52598">
        <ele>80</ele>
        <time>2017-08-23T21:21:22Z</time>
      </trkpt>
      <trkpt lat="48.42197" lon="2.52595">
        <ele>80</ele>
        <time>2017-08-23T21:23:22Z</time>
      </trkpt>
      <trkpt lat="48.42177" lon="2.52588">
        <ele>81</ele>
        <time>2017-08-23T21:25:22Z</time>
      </trkpt>
      <trkpt lat="48.42162" lon="2.52568">
        <ele>81</ele>
        <time>2017-08-23T21:27:22Z</time>
      </trkpt>
      <trkpt lat="48.4215" lon="2.52546">
        <ele>80</ele>
        <time>2017-08-23T21:29:22Z</time>
      </trkpt>
      <trkpt lat="48.42138" lon="2.52524">
        <ele>80</ele>
        <time>2017-08-23T21:31:22Z</time>
      </trkpt>
      <trkpt lat="48.42127" lon="2.52507">
        <ele>80</ele>
        <time>2017-08-23T21:33:22Z</time>
      </trkpt>
      <trkpt lat="48.42115" lon="2.52484">
        <ele>80</ele>
        <time>2017-08-23T21:35:22Z</time>
      </trkpt>
      <trkpt lat="48.42105" lon="2.52463">
        <ele>79</ele>
        <time>2017-08-23T21:37:22Z</time>
      </trkpt>
      <trkpt lat="48.42094" lon="2.52446">
        <ele>79</ele>
        <time>2017-08-23T21:39:22Z</time>
      </trkpt>
      <trkpt lat="48.42085" lon="2.52426">
        <ele>79</ele>
        <time>2017-08-23T21:41:22Z</time>
      </trkpt>
      <trkpt lat="48.42073" lon="2.52407">
        <ele>79</ele>
        <time>2017-08-23T21:43:22Z</time>
      </trkpt>
      <trkpt lat="48.42056" lon="2.52392">
        <ele>79</ele>
        <time>2017-08-23T21:45:22Z</time>
      </trkpt>
      <trkpt lat="48.42036" lon="2.52377">
        <ele>79</ele>
        <time>2017-08-23T21:47:22Z</time>
      </trkpt>
      <trkpt lat="48.42014" lon="2.52375">
        <ele>79</ele>
        <time>2017-08-23T21:49:22Z</time>
      </trkpt>
      <trkpt lat="48.41995" lon="2.52372">
        <ele>79</ele>
        <time>2017-08-23T21:51:22Z</time>
      </trkpt>
      <trkpt lat="48.41975" lon="2.52366">
        <ele>80</ele>
        <time>2017-08-23T21:53:22Z</time>
      </trkpt>
      <trkpt lat="48.41962" lon="2.52357">
        <ele>80</ele>
        <time>2017-08-23T21:55:22Z</time>
      </trkpt>
      <trkpt lat="48.41943" lon="2.52346">
        <ele>81</ele>
        <time>2017-08-23T21:57:22Z</time>
      </trkpt>
      <trkpt lat="48.41926" lon="2.52336">
        <ele>82</ele>
        <time>2017-08-23T21:59:22Z</time>
      </trkpt>
      <trkpt lat="48.41912" lon="2.52323">
        <ele>84</ele>
        <time>2017-08-23T22:01:22Z</time>
      </trkpt>
      <trkpt lat="48.419" lon="2.52301">
        <ele>88</ele>
        <time>2017-08-23T22:03:22Z</time>
      </trkpt>
      <trkpt lat="48.4189" lon="2.52283">
        <ele>91</ele>
        <time>2017-08-23T22:05:22Z</time>
      </trkpt>
      <trkpt lat="48.41879" lon="2.5228">
        <ele>93</ele>
        <time>2017-08-23T22:07:22Z</time>
      </trkpt>
      <trkpt lat="48.41868" lon="2.52282">
        <ele>94</ele>
        <time>2017-08-23T22:09:22Z</time>
      </trkpt>
      <trkpt lat="48.41855" lon="2.52282">
        <ele>97</ele>
        <time>2017-08-23T22:11:22Z</time>
      </trkpt>
      <trkpt lat="48.41846" lon="2.52267">
        <ele>99</ele>
        <time>2017-08-23T22:13:22Z</time>
      </trkpt>
      <trkpt lat="48.41834" lon="2.52258">
        <ele>102</ele>
        <time>2017-08-23T22:15:22Z</time>
      </trkpt>
      <trkpt lat="48.41822" lon="2.5225">
        <ele>104</ele>
        <time>2017-08-23T22:17:22Z</time>
      </trkpt>
      <trkpt lat="48.41806" lon="2.52227">
        <ele>109</ele>
        <time>2017-08-23T22:19:22Z</time>
      </trkpt>
      <trkpt lat="48.41798" lon="2.52205">
        <ele>111</ele>
        <time>2017-08-23T22:21:22Z</time>
      </trkpt>
      <trkpt lat="48.41781" lon="2.52191">
        <ele>115</ele>
        <time>2017-08-23T22:23:22Z</time>
      </trkpt>
      <trkpt lat="48.41769" lon="2.52175">
        <ele>117</ele>
        <time>2017-08-23T22:25:22Z</time>
      </trkpt>
      <trkpt lat="48.41774" lon="2.52156">
        <ele>116</ele>
        <time>2017-08-23T22:27:22Z</time>
      </trkpt>
      <trkpt lat="48.41779" lon="2.52134">
        <ele>116</ele>
        <time>2017-08-23T22:29:22Z</time>
      </trkpt>
      <trkpt lat="48.4178" lon="2.52107">
        <ele>117</ele>
        <time>2017-08-23T22:31:22Z</time>
      </trkpt>
      <trkpt lat="48.41781" lon="2.52079">
        <ele>118</ele>
        <time>2017-08-23T22:33:22Z</time>
      </trkpt>
      <trkpt lat="48.41771" lon="2.52049">
        <ele>119</ele>
        <time>2017-08-23T22:35:22Z</time>
      </trkpt>
      <trkpt lat="48.41771" lon="2.52022">
        <ele>120</ele>
        <time>2017-08-23T22:37:22Z</time>
      </trkpt>
      <trkpt lat="48.41773" lon="2.5199">
        <ele>120</ele>
        <time>2017-08-23T22:39:22Z</time>
      </trkpt>
      <trkpt lat="48.41776" lon="2.51971">
        <ele>120</ele>
        <time>2017-08-23T22:41:22Z</time>
      </trkpt>
      <trkpt lat="48.41771" lon="2.51941">
        <ele>120</ele>
        <time>2017-08-23T22:43:22Z</time>
      </trkpt>
      <trkpt lat="48.41771" lon="2.51911">
        <ele>120</ele>
        <time>2017-08-23T22:45:22Z</time>
      </trkpt>
      <trkpt lat="48.41767" lon="2.51892">
        <ele>120</ele>
        <time>2017-08-23T22:47:22Z</time>
      </trkpt>
      <trkpt lat="48.41766" lon="2.51866">
        <ele>119</ele>
        <time>2017-08-23T22:49:22Z</time>
      </trkpt>
      <trkpt lat="48.41777" lon="2.51853">
        <ele>118</ele>
        <time>2017-08-23T22:51:22Z</time>
      </trkpt>
      <trkpt lat="48.41786" lon="2.51843">
        <ele>116</ele>
        <time>2017-08-23T22:53:22Z</time>
      </trkpt>
      <trkpt lat="48.41799" lon="2.51836">
        <ele>115</ele>
        <time>2017-08-23T22:55:22Z</time>
      </trkpt>
      <trkpt lat="48.41806" lon="2.51809">
        <ele>112</ele>
        <time>2017-08-23T22:57:22Z</time>
      </trkpt>
      <trkpt lat="48.41811" lon="2.51774">
        <ele>109</ele>
        <time>2017-08-23T22:59:22Z</time>
      </trkpt>
      <trkpt lat="48.41817" lon="2.51754">
        <ele>107</ele>
        <time>2017-08-23T23:01:22Z</time>
      </trkpt>
      <trkpt lat="48.41828" lon="2.51724">
        <ele>106</ele>
        <time>2017-08-23T23:03:22Z</time>
      </trkpt>
      <trkpt lat="48.41817" lon="2.51701">
        <ele>106</ele>
        <time>2017-08-23T23:05:22Z</time>
      </trkpt>
      <trkpt lat="48.41805" lon="2.51677">
        <ele>107</ele>
        <time>2017-08-23T23:07:22Z</time>
      </trkpt>
      <trkpt lat="48.41797" lon="2.51661">
        <ele>108</ele>
        <time>2017-08-23T23:09:22Z</time>
      </trkpt>
      <trkpt lat="48.41815" lon="2.51667">
        <ele>106</ele>
        <time>2017-08-23T23:11:22Z</time>
      </trkpt>
      <trkpt lat="48.41833" lon="2.51684">
        <ele>105</ele>
        <time>2017-08-23T23:13:22Z</time>
      </trkpt>
      <trkpt lat="48.4185" lon="2.51707">
        <ele>103</ele>
        <time>2017-08-23T23:15:22Z</time>
      </trkpt>
      <trkpt lat="48.41868" lon="2.51715">
        <ele>101</ele>
        <time>2017-08-23T23:17:22Z</time>
      </trkpt>
      <trkpt lat="48.4188" lon="2.51726">
        <ele>98</ele>
        <time>2017-08-23T23:19:22Z</time>
      </trkpt>
      <trkpt lat="48.41899" lon="2.51728">
        <ele>95</ele>
        <time>2017-08-23T23:21:22Z</time>
      </trkpt>
      <trkpt lat="48.41912" lon="2.51741">
        <ele>91</ele>
        <time>2017-08-23T23:23:22Z</time>
      </trkpt>
      <trkpt lat="48.41929" lon="2.5176">
        <ele>88</ele>
        <time>2017-08-23T23:25:22Z</time>
      </trkpt>
      <trkpt lat="48.41947" lon="2.51767">
        <ele>86</ele>
        <time>2017-08-23T23:27:22Z</time>
      </trkpt>
      <trkpt lat="48.41965" lon="2.51771">
        <ele>84</ele>
        <time>2017-08-23T23:29:22Z</time>
      </trkpt>
      <trkpt lat="48.41981" lon="2.51792">
        <ele>82</ele>
        <time>2017-08-23T23:31:22Z</time>
      </trkpt>
      <trkpt lat="48.41999" lon="2.51804">
        <ele>79</ele>
        <time>2017-08-23T23:33:22Z</time>
      </trkpt>
      <trkpt lat="48.42013" lon="2.51829">
        <ele>78</ele>
        <time>2017-08-23T23:35:22Z</time>
      </trkpt>
      <trkpt lat="48.42022" lon="2.51858">
        <ele>78</ele>
        <time>2017-08-23T23:37:22Z</time>
      </trkpt>
      <trkpt lat="48.42031" lon="2.51886">
        <ele>78</ele>
        <time>2017-08-23T23:39:22Z</time>
      </trkpt>
      <trkpt lat="48.42039" lon="2.51912">
        <ele>78</ele>
        <time>2017-08-23T23:41:22Z</time>
      </trkpt>
      <trkpt lat="48.42051" lon="2.51929">
        <ele>78</ele>
        <time>2017-08-23T23:43:22Z</time>
      </trkpt>
      <trkpt lat="48.42062" lon="2.51942">
        <ele>78</ele>
        <time>2017-08-23T23:45:22Z</time>
      </trkpt>
      <trkpt lat="48.42078" lon="2.51947">
        <ele>78</ele>
        <time>2017-08-23T23:47:22Z</time>
      </trkpt>
      <trkpt lat="48.42092" lon="2.51951">
        <ele>79</ele>
        <time>2017-08-23T23:49:22Z</time>
      </trkpt>
      <trkpt lat="48.42106" lon="2.51958">
        <ele>79</ele>
        <time>2017-08-23T23:51:22Z</time>
      </trkpt>
      <trkpt lat="48.42122" lon="2.51966">
        <ele>79</ele>
        <time>2017-08-23T23:53:22Z</time>
      </trkpt>
      <trkpt lat="48.42142" lon="2.51964">
        <ele>80</ele>
        <time>2017-08-23T23:55:22Z</time>
      </trkpt>
      <trkpt lat="48.42158" lon="2.51963">
        <ele>80</ele>
        <time>2017-08-23T23:57:22Z</time>
      </trkpt>
      <trkpt lat="48.42174" lon="2.51971">
        <ele>80</ele>
        <time>2017-08-23T23:59:22Z</time>
      </trkpt>
      <trkpt lat="48.42182" lon="2.51947">
        <ele>80</ele>
        <time>2017-08-24T00:01:22Z</time>
      </trkpt>
      <trkpt lat="48.42194" lon="2.51915">
        <ele>80</ele>
        <time>2017-08-24T00:03:22Z</time>
      </trkpt>
      <trkpt lat="48.422" lon="2.51884">
        <ele>80</ele>
        <time>2017-08-24T00:05:22Z</time>
      </trkpt>
      <trkpt lat="48.42205" lon="2.51854">
        <ele>81</ele>
        <time>2017-08-24T00:07:22Z</time>
      </trkpt>
      <trkpt lat="48.42211" lon="2.51821">
        <ele>81</ele>
        <time>2017-08-24T00:09:22Z</time>
      </trkpt>
      <trkpt lat="48.42216" lon="2.51788">
        <ele>82</ele>
        <time>2017-08-24T00:11:22Z</time>
      </trkpt>
      <trkpt lat="48.42223" lon="2.51755">
        <ele>82</ele>
        <time>2017-08-24T00:13:22Z</time>
      </trkpt>
      <trkpt lat="48.4223" lon="2.51726">
        <ele>82</ele>
        <time>2017-08-24T00:15:22Z</time>
      </trkpt>
      <trkpt lat="48.42243" lon="2.51706">
        <ele>82</ele>
        <time>2017-08-24T00:17:22Z</time>
      </trkpt>
      <trkpt lat="48.42256" lon="2.51683">
        <ele>82</ele>
        <time>2017-08-24T00:19:22Z</time>
      </trkpt>
      <trkpt lat="48.42266" lon="2.51669">
        <ele>81</ele>
        <time>2017-08-24T00:21:22Z</time>
      </trkpt>
      <trkpt lat="48.42278" lon="2.51655">
        <ele>81</ele>
        <time>2017-08-24T00:23:22Z</time>
      </trkpt>
      <trkpt lat="48.42283" lon="2.51631">
        <ele>81</ele>
        <time>2017-08-24T00:25:22Z</time>
      </trkpt>
      <trkpt lat="48.42288" lon="2.51603">
        <ele>81</ele>
        <time>2017-08-24T00:27:22Z</time>
      </trkpt>
      <trkpt lat="48.42298" lon="2.51581">
        <ele>81</ele>
        <time>2017-08-24T00:29:22Z</time>
      </trkpt>
      <trkpt lat="48.42305" lon="2.51553">
        <ele>81</ele>
        <time>2017-08-24T00:31:22Z</time>
      </trkpt>
      <trkpt lat="48.42315" lon="2.5153">
        <ele>81</ele>
        <time>2017-08-24T00:33:22Z</time>
      </trkpt>
      <trkpt lat="48.42321" lon="2.51507">
        <ele>82</ele>
        <time>2017-08-24T00:35:22Z</time>
      </trkpt>
      <trkpt lat="48.42328" lon="2.51493">
        <ele>82</ele>
        <time>2017-08-24T00:37:22Z</time>
      </trkpt>
      <trkpt lat="48.42339" lon="2.51473">
        <ele>82</ele>
        <time>2017-08-24T00:39:22Z</time>
      </trkpt>
      <trkpt lat="48.4235" lon="2.51447">
        <ele>82</ele>
        <time>2017-08-24T00:41:22Z</time>
      </trkpt>
      <trkpt lat="48.42357" lon="2.51424">
        <ele>83</ele>
        <time>2017-08-24T00:43:22Z</time>
      </trkpt>
      <trkpt lat="48.42365" lon="2.51403">
        <ele>83</ele>
        <time>2017-08-24T00:45:22Z</time>
      </trkpt>
      <trkpt lat="48.4237" lon="2.51382">
        <ele>82</ele>
        <time>2017-08-24T00:47:22Z</time>
      </trkpt>
      <trkpt lat="48.42373" lon="2.51359">
        <ele>82</ele>
        <time>2017-08-24T00:49:22Z</time>
      </trkpt>
      <trkpt lat="48.42378" lon="2.5134">
        <ele>81</ele>
        <time>2017-08-24T00:51:22Z</time>
      </trkpt>
      <trkpt lat="48.42381" lon="2.51314">
        <ele>81</ele>
        <time>2017-08-24T00:53:22Z</time>
      </trkpt>
      <trkpt lat="48.42387" lon="2.51283">
        <ele>81</ele>
        <time>2017-08-24T00:55:22Z</time>
      </trkpt>
      <trkpt lat="48.42395" lon="2.5125">
        <ele>80</ele>
        <time>2017-08-24T00:57:22Z</time>
      </trkpt>
      <trkpt lat="48.42406" lon="2.51207">
        <ele>81</ele>
        <time>2017-08-24T00:59:22Z</time>
      </trkpt>
      <trkpt lat="48.42417" lon="2.51162">
        <ele>81</ele>
        <time>2017-08-24T01:01:22Z</time>
      </trkpt>
      <trkpt lat="48.4243" lon="2.51115">
        <ele>82</ele>
        <time>2017-08-24T01:03:22Z</time>
      </trkpt>
      <trkpt lat="48.42444" lon="2.51059">
        <ele>83</ele>
        <time>2017-08-24T01:05:22Z</time>
      </trkpt>
      <trkpt lat="48.42454" lon="2.51021">
        <ele>83</ele>
        <time>2017-08-24T01:07:22Z</time>
      </trkpt>
      <trkpt lat="48.42466" lon="2.50975">
        <ele>84</ele>
        <time>2017-08-24T01:09:22Z</time>
      </trkpt>
      <trkpt lat="48.42476" lon="2.50932">
        <ele>85</ele>
        <time>2017-08-24T01:11:22Z</time>
      </trkpt>
      <trkpt lat="48.42487" lon="2.50894">
        <ele>85</ele>
        <time>2017-08-24T01:13:22Z</time>
      </trkpt>
      <trkpt lat="48.42491" lon="2.50862">
        <ele>85</ele>
        <time>2017-08-24T01:15:22Z</time>
      </trkpt>
      <trkpt lat="48.42493" lon="2.50835">
        <ele>85</ele>
        <time>2017-08-24T01:17:22Z</time>
      </trkpt>
      <trkpt lat="48.42495" lon="2.50806">
        <ele>85</ele>
        <time>2017-08-24T01:19:22Z</time>
      </trkpt>
      <trkpt lat="48.42497" lon="2.50767">
        <ele>85</ele>
        <time>2017-08-24T01:21:22Z</time>
      </trkpt>
      <trkpt lat="48.425" lon="2.50731">
        <ele>85</ele>
        <time>2017-08-24T01:23:22Z</time>
      </trkpt>
      <trkpt lat="48.42503" lon="2.50689">
        <ele>83</ele>
        <time>2017-08-24T01:25:22Z</time>
      </trkpt>
      <trkpt lat="48.42507" lon="2.50655">
        <ele>83</ele>
        <time>2017-08-24T01:27:22Z</time>
      </trkpt>
      <trkpt lat="48.42509" lon="2.50625">
        <ele>82</ele>
        <time>2017-08-24T01:29:22Z</time>
      </trkpt>
      <trkpt lat="48.42502" lon="2.50607">
        <ele>82</ele>
        <time>2017-08-24T01:31:22Z</time>
      </trkpt>
      <trkpt lat="48.42494" lon="2.50585">
        <ele>82</ele>
        <time>2017-08-24T01:33:22Z</time>
      </trkpt>
      <trkpt lat="48.42486" lon="2.50563">
        <ele>84</ele>
        <time>2017-08-24T01:35:22Z</time>
      </trkpt>
      <trkpt lat="48.42481" lon="2.50546">
        <ele>85</ele>
        <time>2017-08-24T01:37:22Z</time>
      </trkpt>
      <trkpt lat="48.42466" lon="2.50558">
        <ele>85</ele>
        <time>2017-08-24T01:39:22Z</time>
      </trkpt>
      <trkpt lat="48.42448" lon="2.50572">
        <ele>85</ele>
        <time>2017-08-24T01:41:22Z</time>
      </trkpt>
      <trkpt lat="48.42428" lon="2.5058">
        <ele>85</ele>
        <time>2017-08-24T01:43:22Z</time>
      </trkpt>
      <trkpt lat="48.42411" lon="2.5058">
        <ele>85</ele>
        <time>2017-08-24T01:45:22Z</time>
      </trkpt>
      <trkpt lat="48.42387" lon="2.50575">
        <ele>86</ele>
        <time>2017-08-24T01:47:22Z</time>
      </trkpt>
      <trkpt lat="48.42368" lon="2.50572">
        <ele>87</ele>
        <time>2017-08-24T01:49:22Z</time>
      </trkpt>
      <trkpt lat="48.42351" lon="2.5057">
        <ele>87</ele>
        <time>2017-08-24T01:51:22Z</time>
      </trkpt>
      <trkpt lat="48.42342" lon="2.50552">
        <ele>87</ele>
        <time>2017-08-24T01:53:22Z</time>
      </trkpt>
      <trkpt lat="48.42332" lon="2.50537">
        <ele>88</ele>
        <time>2017-08-24T01:55:22Z</time>
      </trkpt>
      <trkpt lat="48.42323" lon="2.50519">
        <ele>89</ele>
        <time>2017-08-24T01:57:22Z</time>
      </trkpt>
      <trkpt lat="48.4231" lon="2.50531">
        <ele>90</ele>
        <time>2017-08-24T01:59:22Z</time>
      </trkpt>
      <trkpt lat="48.42298" lon="2.50546">
        <ele>91</ele>
        <time>2017-08-24T02:01:22Z</time>
      </trkpt>
      <trkpt lat="48.42286" lon="2.50562">
        <ele>92</ele>
        <time>2017-08-24T02:03:22Z</time>
      </trkpt>
      <trkpt lat="48.42271" lon="2.50582">
        <ele>94</ele>
        <time>2017-08-24T02:05:22Z</time>
      </trkpt>
      <trkpt lat="48.42252" lon="2.506">
        <ele>96</ele>
        <time>2017-08-24T02:07:22Z</time>
      </trkpt>
      <trkpt lat="48.42237" lon="2.50615">
        <ele>97</ele>
        <time>2017-08-24T02:09:22Z</time>
      </trkpt>
      <trkpt lat="48.42222" lon="2.50628">
        <ele>99</ele>
        <time>2017-08-24T02:11:22Z</time>
      </trkpt>
      <trkpt lat="48.42212" lon="2.50636">
        <ele>100</ele>
        <time>2017-08-24T02:13:22Z</time>
      </trkpt>
      <trkpt lat="48.42199" lon="2.50628">
        <ele>101</ele>
        <time>2017-08-24T02:15:22Z</time>
      </trkpt>
      <trkpt lat="48.42182" lon="2.50636">
        <ele>103</ele>
        <time>2017-08-24T02:17:22Z</time>
      </trkpt>
      <trkpt lat="48.42163" lon="2.50644">
        <ele>105</ele>
        <time>2017-08-24T02:19:22Z</time>
      </trkpt>
      <trkpt lat="48.42142" lon="2.50651">
        <ele>109</ele>
        <time>2017-08-24T02:21:22Z</time>
      </trkpt>
      <trkpt lat="48.42115" lon="2.50663">
        <ele>114</ele>
        <time>2017-08-24T02:23:22Z</time>
      </trkpt>
      <trkpt lat="48.42094" lon="2.50674">
        <ele>118</ele>
        <time>2017-08-24T02:25:22Z</time>
      </trkpt>
      <trkpt lat="48.4207" lon="2.5068">
        <ele>122</ele>
        <time>2017-08-24T02:27:22Z</time>
      </trkpt>
      <trkpt lat="48.42056" lon="2.50685">
        <ele>123</ele>
        <time>2017-08-24T02:29:22Z</time>
      </trkpt>
      <trkpt lat="48.42041" lon="2.50693">
        <ele>125</ele>
        <time>2017-08-24T02:31:22Z</time>
      </trkpt>
      <trkpt lat="48.42048" lon="2.50665">
        <ele>125</ele>
        <time>2017-08-24T02:33:22Z</time>
      </trkpt>
      <trkpt lat="48.42055" lon="2.50636">
        <ele>125</ele>
        <time>2017-08-24T02:35:22Z</time>
      </trkpt>
      <trkpt lat="48.42061" lon="2.50616">
        <ele>124</ele>
        <time>2017-08-24T02:37:22Z</time>
      </trkpt>
      <trkpt lat="48.42064" lon="2.50578">
        <ele>125</ele>
        <time>2017-08-24T02:39:22Z</time>
      </trkpt>
      <trkpt lat="48.42067" lon="2.50542">
        <ele>125</ele>
        <time>2017-08-24T02:41:22Z</time>
      </trkpt>
      <trkpt lat="48.42068" lon="2.50522">
        <ele>126</ele>
        <time>2017-08-24T02:43:22Z</time>
      </trkpt>
      <trkpt lat="48.42074" lon="2.50499">
        <ele>126</ele>
        <time>2017-08-24T02:45:22Z</time>
      </trkpt>
      <trkpt lat="48.42083" lon="2.50469">
        <ele>126</ele>
        <time>2017-08-24T02:47:22Z</time>
      </trkpt>
      <trkpt lat="48.42094" lon="2.50441">
        <ele>125</ele>
        <time>2017-08-24T02:49:22Z</time>
      </trkpt>
      <trkpt lat="48.42101" lon="2.5041">
        <ele>125</ele>
        <time>2017-08-24T02:51:22Z</time>
      </trkpt>
      <trkpt lat="48.4211" lon="2.50373">
        <ele>124</ele>
        <time>2017-08-24T02:53:22Z</time>
      </trkpt>
      <trkpt lat="48.42115" lon="2.50342">
        <ele>123</ele>
        <time>2017-08-24T02:55:22Z</time>
      </trkpt>
      <trkpt lat="48.42122" lon="2.50312">
        <ele>122</ele>
        <time>2017-08-24T02:57:22Z</time>
      </trkpt>
      <trkpt lat="48.42127" lon="2.50286">
        <ele>121</ele>
        <time>2017-08-24T02:59:22Z</time>
      </trkpt>
      <trkpt lat="48.42129" lon="2.50267">
        <ele>120</ele>
        <time>2017-08-24T03:01:22Z</time>
      </trkpt>
      <trkpt lat="48.42127" lon="2.50247">
        <ele>120</ele>
        <time>2017-08-24T03:03:22Z</time>
      </trkpt>
      <trkpt lat="48.42112" lon="2.50234">
        <ele>122</ele>
        <time>2017-08-24T03:05:22Z</time>
      </trkpt>
      <trkpt lat="48.42095" lon="2.50217">
        <ele>125</ele>
        <time>2017-08-24T03:07:22Z</time>
      </trkpt>
      <trkpt lat="48.4207" lon="2.50192">
        <ele>128</ele>
        <time>2017-08-24T03:09:22Z</time>
      </trkpt>
      <trkpt lat="48.42046" lon="2.50164">
        <ele>128</ele>
        <time>2017-08-24T03:11:22Z</time>
      </trkpt>
      <trkpt lat="48.42023" lon="2.50142">
        <ele>128</ele>
        <time>2017-08-24T03:13:22Z</time>
      </trkpt>
      <trkpt lat="48.42002" lon="2.50119">
        <ele>129</ele>
        <time>2017-08-24T03:15:22Z</time>
      </trkpt>
      <trkpt lat="48.41985" lon="2.50101">
        <ele>128</ele>
        <time>2017-08-24T03:17:22Z</time>
      </trkpt>
      <trkpt lat="48.41968" lon="2.50087">
        <ele>127</ele>
        <time>2017-08-24T03:19:22Z</time>
      </trkpt>
      <trkpt lat="48.4195" lon="2.50069">
        <ele>126</ele>
        <time>2017-08-24T03:21:22Z</time>
      </trkpt>
      <trkpt lat="48.41942" lon="2.50088">
        <ele>127</ele>
        <time>2017-08-24T03:23:22Z</time>
      </trkpt>
      <trkpt lat="48.41929" lon="2.50104">
        <ele>127</ele>
        <time>2017-08-24T03:25:22Z</time>
      </trkpt>
      <trkpt lat="48.41909" lon="2.50117">
        <ele>128</ele>
        <time>2017-08-24T03:27:22Z</time>
      </trkpt>
      <trkpt lat="48.41892" lon="2.50131">
        <ele>128</ele>
        <time>2017-08-24T03:29:22Z</time>
      </trkpt>
      <trkpt lat="48.41876" lon="2.50135">
        <ele>128</ele>
        <time>2017-08-24T03:31:22Z</time>
      </trkpt>
      <trkpt lat="48.4186" lon="2.50126">
        <ele>127</ele>
        <time>2017-08-24T03:33:22Z</time>
      </trkpt>
      <trkpt lat="48.41846" lon="2.50114">
        <ele>127</ele>
        <time>2017-08-24T03:35:22Z</time>
      </trkpt>
      <trkpt lat="48.41833" lon="2.50125">
        <ele>127</ele>
        <time>2017-08-24T03:37:22Z</time>
      </trkpt>
      <trkpt lat="48.41822" lon="2.50145">
        <ele>128</ele>
        <time>2017-08-24T03:39:22Z</time>
      </trkpt>
      <trkpt lat="48.41803" lon="2.50166">
        <ele>129</ele>
        <time>2017-08-24T03:41:22Z</time>
      </trkpt>
      <trkpt lat="48.41789" lon="2.50177">
        <ele>129</ele>
        <time>2017-08-24T03:43:22Z</time>
      </trkpt>
      <trkpt lat="48.41774" lon="2.50184">
        <ele>130</ele>
        <time>2017-08-24T03:45:22Z</time>
      </trkpt>
      <trkpt lat="48.41756" lon="2.5019">
        <ele>130</ele>
        <time>2017-08-24T03:47:22Z</time>
      </trkpt>
      <trkpt lat="48.41743" lon="2.50187">
        <ele>130</ele>
        <time>2017-08-24T03:49:22Z</time>
      </trkpt>
      <trkpt lat="48.41746" lon="2.5017">
        <ele>130</ele>
        <time>2017-08-24T03:51:22Z</time>
      </trkpt>
      <trkpt lat="48.41729" lon="2.50155">
        <ele>128</ele>
        <time>2017-08-24T03:53:22Z</time>
      </trkpt>
      <trkpt lat="48.41717" lon="2.50139">
        <ele>126</ele>
        <time>2017-08-24T03:55:22Z</time>
      </trkpt>
      <trkpt lat="48.41707" lon="2.50125">
        <ele>124</ele>
        <time>2017-08-24T03:57:22Z</time>
      </trkpt>
      <trkpt lat="48.41692" lon="2.50138">
        <ele>123</ele>
        <time>2017-08-24T03:59:22Z</time>
      </trkpt>
      <trkpt lat="48.41676" lon="2.5015">
        <ele>122</ele>
        <time>2017-08-24T04:01:22Z</time>
      </trkpt>
      <trkpt lat="48.41668" lon="2.50163">
        <ele>122</ele>
        <time>2017-08-24T04:03:22Z</time>
      </trkpt>
      <trkpt lat="48.41675" lon="2.50142">
        <ele>122</ele>
        <time>2017-08-24T04:05:22Z</time>
      </trkpt>
      <trkpt lat="48.41669" lon="2.50129">
        <ele>120</ele>
        <time>2017-08-24T04:07:22Z</time>
      </trkpt>
      <trkpt lat="48.41665" lon="2.50111">
        <ele>119</ele>
        <time>2017-08-24T04:09:22Z</time>
      </trkpt>
      <trkpt lat="48.41655" lon="2.50094">
        <ele>117</ele>
        <time>2017-08-24T04:11:22Z</time>
      </trkpt>
      <trkpt lat="48.41655" lon="2.50063">
        <ele>116</ele>
        <time>2017-08-24T04:13:22Z</time>
      </trkpt>
      <trkpt lat="48.41644" lon="2.50057">
        <ele>115</ele>
        <time>2017-08-24T04:15:22Z</time>
      </trkpt>
      <trkpt lat="48.41633" lon="2.50042">
        <ele>113</ele>
        <time>2017-08-24T04:17:22Z</time>
      </trkpt>
      <trkpt lat="48.41634" lon="2.50008">
        <ele>113</ele>
        <time>2017-08-24T04:19:22Z</time>
      </trkpt>
      <trkpt lat="48.4161" lon="2.50004">
        <ele>111</ele>
        <time>2017-08-24T04:21:22Z</time>
      </trkpt>
      <trkpt lat="48.41584" lon="2.50015">
        <ele>109</ele>
        <time>2017-08-24T04:23:22Z</time>
      </trkpt>
      <trkpt lat="48.41566" lon="2.50026">
        <ele>107</ele>
        <time>2017-08-24T04:25:22Z</time>
      </trkpt>
      <trkpt lat="48.41537" lon="2.50045">
        <ele>103</ele>
        <time>2017-08-24T04:27:22Z</time>
      </trkpt>
      <trkpt lat="48.41509" lon="2.50047">
        <ele>100</ele>
        <time>2017-08-24T04:29:22Z</time>
      </trkpt>
      <trkpt lat="48.41482" lon="2.50048">
        <ele>98</ele>
        <time>2017-08-24T04:31:22Z</time>
      </trkpt>
      <trkpt lat="48.41462" lon="2.50045">
        <ele>97</ele>
        <time>2017-08-24T04:33:22Z</time>
      </trkpt>
      <trkpt lat="48.41444" lon="2.50036">
        <ele>96</ele>
        <time>2017-08-24T04:35:22Z</time>
      </trkpt>
      <trkpt lat="48.4145" lon="2.50072">
        <ele>96</ele>
        <time>2017-08-24T04:37:22Z</time>
      </trkpt>
      <trkpt lat="48.41458" lon="2.5012">
        <ele>101</ele>
        <time>2017-08-24T04:39:22Z</time>
      </trkpt>
      <trkpt lat="48.41458" lon="2.50164">
        <ele>107</ele>
        <time>2017-08-24T04:41:22Z</time>
      </trkpt>
      <trkpt lat="48.41454" lon="2.50195">
        <ele>110</ele>
        <time>2017-08-24T04:43:22Z</time>
      </trkpt>
      <trkpt lat="48.41445" lon="2.50222">
        <ele>112</ele>
        <time>2017-08-24T04:45:22Z</time>
      </trkpt>
      <trkpt lat="48.41438" lon="2.5025">
        <ele>114</ele>
        <time>2017-08-24T04:47:22Z</time>
      </trkpt>
      <trkpt lat="48.41443" lon="2.50273">
        <ele>115</ele>
        <time>2017-08-24T04:49:22Z</time>
      </trkpt>
      <trkpt lat="48.41455" lon="2.50311">
        <ele>117</ele>
        <time>2017-08-24T04:51:22Z</time>
      </trkpt>
      <trkpt lat="48.41454" lon="2.50338">
        <ele>117</ele>
        <time>2017-08-24T04:53:22Z</time>
      </trkpt>
      <trkpt lat="48.41451" lon="2.50371">
        <ele>117</ele>
        <time>2017-08-24T04:55:22Z</time>
      </trkpt>
      <trkpt lat="48.41447" lon="2.50416">
        <ele>117</ele>
        <time>2017-08-24T04:57:22Z</time>
      </trkpt>
      <trkpt lat="48.41455" lon="2.50445">
        <ele>118</ele>
        <time>2017-08-24T04:59:22Z</time>
      </trkpt>
      <trkpt lat="48.41461" lon="2.50467">
        <ele>118</ele>
        <time>2017-08-24T05:01:22Z</time>
      </trkpt>
      <trkpt lat="48.41468" lon="2.5051">
        <ele>118</ele>
        <time>2017-08-24T05:03:22Z</time>
      </trkpt>
      <trkpt lat="48.41473" lon="2.50546">
        <ele>119</ele>
        <time>2017-08-24T05:05:22Z</time>
      </trkpt>
      <trkpt lat="48.41478" lon="2.50579">
        <ele>121</ele>
        <time>2017-08-24T05:07:22Z</time>
      </trkpt>
      <trkpt lat="48.41482" lon="2.50609">
        <ele>122</ele>
        <time>2017-08-24T05:09:22Z</time>
      </trkpt>
      <trkpt lat="48.41489" lon="2.50644">
        <ele>123</ele>
        <time>2017-08-24T05:11:22Z</time>
      </trkpt>
      <trkpt lat="48.41497" lon="2.50674">
        <ele>123</ele>
        <time>2017-08-24T05:13:22Z</time>
      </trkpt>
      <trkpt lat="48.41502" lon="2.50703">
        <ele>124</ele>
        <time>2017-08-24T05:15:22Z</time>
      </trkpt>
      <trkpt lat="48.41502" lon="2.50735">
        <ele>125</ele>
        <time>2017-08-24T05:17:22Z</time>
      </trkpt>
      <trkpt lat="48.41497" lon="2.50754">
        <ele>125</ele>
        <time>2017-08-24T05:19:22Z</time>
      </trkpt>
      <trkpt lat="48.41488" lon="2.50781">
        <ele>126</ele>
        <time>2017-08-24T05:21:22Z</time>
      </trkpt>
      <trkpt lat="48.41479" lon="2.50806">
        <ele>127</ele>
        <time>2017-08-24T05:23:22Z</time>
      </trkpt>
      <trkpt lat="48.41479" lon="2.50831">
        <ele>128</ele>
        <time>2017-08-24T05:25:22Z</time>
      </trkpt>
      <trkpt lat="48.41467" lon="2.50847">
        <ele>129</ele>
        <time>2017-08-24T05:27:22Z</time>
      </trkpt>
      <trkpt lat="48.41453" lon="2.5086">
        <ele>129</ele>
        <time>2017-08-24T05:29:22Z</time>
      </trkpt>
      <trkpt lat="48.4144" lon="2.50873">
        <ele>129</ele>
        <time>2017-08-24T05:31:22Z</time>
      </trkpt>
      <trkpt lat="48.41425" lon="2.50885">
        <ele>128</ele>
        <time>2017-08-24T05:33:22Z</time>
      </trkpt>
      <trkpt lat="48.41407" lon="2.50894">
        <ele>127</ele>
        <time>2017-08-24T05:35:22Z</time>
      </trkpt>
      <trkpt lat="48.41383" lon="2.50901">
        <ele>126</ele>
        <time>2017-08-24T05:37:22Z</time>
      </trkpt>
      <trkpt lat="48.41363" lon="2.50911">
        <ele>124</ele>
        <time>2017-08-24T05:39:22Z</time>
      </trkpt>
      <trkpt lat="48.41338" lon="2.50923">
        <ele>121</ele>
        <time>2017-08-24T05:41:22Z</time>
      </trkpt>
      <trkpt lat="48.41317" lon="2.50935">
        <ele>118</ele>
        <time>2017-08-24T05:43:22Z</time>
      </trkpt>
      <trkpt lat="48.41293" lon="2.50948">
        <ele>114</ele>
        <time>2017-08-24T05:45:22Z</time>
      </trkpt>
      <trkpt lat="48.41269" lon="2.50959">
        <ele>110</ele>
        <time>2017-08-24T05:47:22Z</time>
      </trkpt>
      <trkpt lat="48.41251" lon="2.50971">
        <ele>106</ele>
        <time>2017-08-24T05:49:22Z</time>
      </trkpt>
      <trkpt lat="48.41231" lon="2.50987">
        <ele>103</ele>
        <time>2017-08-24T05:51:22Z</time>
      </trkpt>
      <trkpt lat="48.4121" lon="2.50998">
        <ele>101</ele>
        <time>2017-08-24T05:53:22Z</time>
      </trkpt>
      <trkpt lat="48.41188" lon="2.51008">
        <ele>100</ele>
        <time>2017-08-24T05:55:22Z</time>
      </trkpt>
      <trkpt lat="48.4118" lon="2.51023">
        <ele>99</ele>
        <time>2017-08-24T05:57:22Z</time>
      </trkpt>
      <trkpt lat="48.41166" lon="2.51036">
        <ele>98</ele>
        <time>2017-08-24T05:59:22Z</time>
      </trkpt>
      <trkpt lat="48.41156" lon="2.51051">
        <ele>99</ele>
        <time>2017-08-24T06:01:22Z</time>
      </trkpt>
      <trkpt lat="48.41153" lon="2.51084">
        <ele>97</ele>
        <time>2017-08-24T06:03:22Z</time>
      </trkpt>
      <trkpt lat="48.41145" lon="2.51114">
        <ele>99</ele>
        <time>2017-08-24T06:05:22Z</time>
      </trkpt>
      <trkpt lat="48.4114" lon="2.51144">
        <ele>99</ele>
        <time>2017-08-24T06:07:22Z</time>
      </trkpt>
      <trkpt lat="48.41134" lon="2.51176">
        <ele>100</ele>
        <time>2017-08-24T06:09:22Z</time>
      </trkpt>
      <trkpt lat="48.41123" lon="2.51205">
        <ele>101</ele>
        <time>2017-08-24T06:11:22Z</time>
      </trkpt>
      <trkpt lat="48.41116" lon="2.51238">
        <ele>101</ele>
        <time>2017-08-24T06:13:22Z</time>
      </trkpt>
      <trkpt lat="48.41106" lon="2.5128">
        <ele>101</ele>
        <time>2017-08-24T06:15:22Z</time>
      </trkpt>
      <trkpt lat="48.41096" lon="2.51318">
        <ele>99</ele>
        <time>2017-08-24T06:17:22Z</time>
      </trkpt>
      <trkpt lat="48.41093" lon="2.51342">
        <ele>98</ele>
        <time>2017-08-24T06:19:22Z</time>
      </trkpt>
      <trkpt lat="48.41086" lon="2.51373">
        <ele>96</ele>
        <time>2017-08-24T06:21:22Z</time>
      </trkpt>
      <trkpt lat="48.41081" lon="2.51403">
        <ele>95</ele>
        <time>2017-08-24T06:23:22Z</time>
      </trkpt>
      <trkpt lat="48.41075" lon="2.51431">
        <ele>95</ele>
        <time>2017-08-24T06:25:22Z</time>
      </trkpt>
      <trkpt lat="48.41069" lon="2.51454">
        <ele>96</ele>
        <time>2017-08-24T06:27:22Z</time>
      </trkpt>
      <trkpt lat="48.41061" lon="2.51484">
        <ele>96</ele>
        <time>2017-08-24T06:29:22Z</time>
      </trkpt>
      <trkpt lat="48.41054" lon="2.51509">
        <ele>96</ele>
        <time>2017-08-24T06:31:22Z</time>
      </trkpt>
      <trkpt lat="48.41049" lon="2.51539">
        <ele>96</ele>
        <time>2017-08-24T06:33:22Z</time>
      </trkpt>
      <trkpt lat="48.41031" lon="2.51532">
        <ele>99</ele>
        <time>2017-08-24T06:35:22Z</time>
      </trkpt>
      <trkpt lat="48.41012" lon="2.51509">
        <ele>101</ele>
        <time>2017-08-24T06:37:22Z</time>
      </trkpt>
      <trkpt lat="48.40989" lon="2.51502">
        <ele>103</ele>
        <time>2017-08-24T06:39:22Z</time>
      </trkpt>
      <trkpt lat="48.4097" lon="2.51493">
        <ele>104</ele>
        <time>2017-08-24T06:41:22Z</time>
      </trkpt>
      <trkpt lat="48.4095" lon="2.5149">
        <ele>104</ele>
        <time>2017-08-24T06:43:22Z</time>
      </trkpt>
      <trkpt lat="48.40935" lon="2.51489">
        <ele>104</ele>
        <time>2017-08-24T06:45:22Z</time>
      </trkpt>
      <trkpt lat="48.4093" lon="2.51515">
        <ele>105</ele>
        <time>2017-08-24T06:47:22Z</time>
      </trkpt>
      <trkpt lat="48.40933" lon="2.51545">
        <ele>107</ele>
        <time>2017-08-24T06:49:22Z</time>
      </trkpt>
      <trkpt lat="48.40935" lon="2.51578">
        <ele>108</ele>
        <time>2017-08-24T06:51:22Z</time>
      </trkpt>
      <trkpt lat="48.40935" lon="2.51608">
        <ele>111</ele>
        <time>2017-08-24T06:53:22Z</time>
      </trkpt>
      <trkpt lat="48.40936" lon="2.51632">
        <ele>112</ele>
        <time>2017-08-24T06:55:22Z</time>
      </trkpt>
      <trkpt lat="48.40935" lon="2.51654">
        <ele>114</ele>
        <time>2017-08-24T06:57:22Z</time>
      </trkpt>
      <trkpt lat="48.40937" lon="2.51676">
        <ele>114</ele>
        <time>2017-08-24T06:59:22Z</time>
      </trkpt>
      <trkpt lat="48.40935" lon="2.51701">
        <ele>114</ele>
        <time>2017-08-24T07:01:22Z</time>
      </trkpt>
      <trkpt lat="48.40926" lon="2.51721">
        <ele>116</ele>
        <time>2017-08-24T07:03:22Z</time>
      </trkpt>
      <trkpt lat="48.40914" lon="2.51741">
        <ele>118</ele>
        <time>2017-08-24T07:05:22Z</time>
      </trkpt>
      <trkpt lat="48.409" lon="2.51765">
        <ele>115</ele>
        <time>2017-08-24T07:07:22Z</time>
      </trkpt>
      <trkpt lat="48.40891" lon="2.51783">
        <ele>112</ele>
        <time>2017-08-24T07:09:22Z</time>
      </trkpt>
      <trkpt lat="48.40878" lon="2.51808">
        <ele>108</ele>
        <time>2017-08-24T07:11:22Z</time>
      </trkpt>
      <trkpt lat="48.40865" lon="2.51843">
        <ele>103</ele>
        <time>2017-08-24T07:13:22Z</time>
      </trkpt>
      <trkpt lat="48.4087" lon="2.5186">
        <ele>103</ele>
        <time>2017-08-24T07:15:22Z</time>
      </trkpt>
      <trkpt lat="48.40876" lon="2.51879">
        <ele>102</ele>
        <time>2017-08-24T07:17:22Z</time>
      </trkpt>
      <trkpt lat="48.40891" lon="2.51882">
        <ele>102</ele>
        <time>2017-08-24T07:19:22Z</time>
      </trkpt>
      <trkpt lat="48.40899" lon="2.51863">
        <ele>103</ele>
        <time>2017-08-24T07:21:22Z</time>
      </trkpt>
      <trkpt lat="48.40916" lon="2.51859">
        <ele>104</ele>
        <time>2017-08-24T07:23:22Z</time>
      </trkpt>
      <trkpt lat="48.40931" lon="2.51861">
        <ele>101</ele>
        <time>2017-08-24T07:25:22Z</time>
      </trkpt>
      <trkpt lat="48.4094" lon="2.51875">
        <ele>99</ele>
        <time>2017-08-24T07:27:22Z</time>
      </trkpt>
      <trkpt lat="48.40947" lon="2.51889">
        <ele>97</ele>
        <time>2017-08-24T07:29:22Z</time>
      </trkpt>
      <trkpt lat="48.40961" lon="2.51902">
        <ele>93</ele>
        <time>2017-08-24T07:31:22Z</time>
      </trkpt>
      <trkpt lat="48.40974" lon="2.51909">
        <ele>90</ele>
        <time>2017-08-24T07:33:22Z</time>
      </trkpt>
      <trkpt lat="48.41002" lon="2.51898">
        <ele>86</ele>
        <time>2017-08-24T07:35:22Z</time>
      </trkpt>
      <trkpt lat="48.4101" lon="2.51886">
        <ele>87</ele>
        <time>2017-08-24T07:37:22Z</time>
      </trkpt>
      <trkpt lat="48.41021" lon="2.51886">
        <ele>87</ele>
        <time>2017-08-24T07:39:22Z</time>
      </trkpt>
      <trkpt lat="48.41015" lon="2.51922">
        <ele>85</ele>
        <time>2017-08-24T07:41:22Z</time>
      </trkpt>
      <trkpt lat="48.41009" lon="2.51957">
        <ele>85</ele>
        <time>2017-08-24T07:43:22Z</time>
      </trkpt>
      <trkpt lat="48.41004" lon="2.51984">
        <ele>84</ele>
        <time>2017-08-24T07:45:22Z</time>
      </trkpt>
      <trkpt lat="48.40999" lon="2.52009">
        <ele>84</ele>
        <time>2017-08-24T07:47:22Z</time>
      </trkpt>
      <trkpt lat="48.40999" lon="2.52031">
        <ele>83</ele>
        <time>2017-08-24T07:49:22Z</time>
      </trkpt>
      <trkpt lat="48.40992" lon="2.52057">
        <ele>84</ele>
        <time>2017-08-24T07:51:22Z</time>
      </trkpt>
      <trkpt lat="48.40989" lon="2.52089">
        <ele>84</ele>
        <time>2017-08-24T07:53:22Z</time>
      </trkpt>
      <trkpt lat="48.40983" lon="2.52118">
        <ele>85</ele>
        <time>2017-08-24T07:55:22Z</time>
      </trkpt>
      <trkpt lat="48.40976" lon="2.5216">
        <ele>85</ele>
        <time>2017-08-24T07:57:22Z</time>
      </trkpt>
      <trkpt lat="48.4099" lon="2.52149">
        <ele>83</ele>
        <time>2017-08-24T07:59:22Z</time>
      </trkpt>
      <trkpt lat="48.41001" lon="2.52132">
        <ele>82</ele>
        <time>2017-08-24T08:01:22Z</time>
      </trkpt>
      <trkpt lat="48.41017" lon="2.52117">
        <ele>84</ele>
        <time>2017-08-24T08:03:22Z</time>
      </trkpt>
      <trkpt lat="48.41022" lon="2.52101">
        <ele>84</ele>
        <time>2017-08-24T08:05:22Z</time>
      </trkpt>
      <trkpt lat="48.41027" lon="2.52083">
        <ele>84</ele>
        <time>2017-08-24T08:07:22Z</time>
      </trkpt>
      <trkpt lat="48.41039" lon="2.52078">
        <ele>85</ele>
        <time>2017-08-24T08:09:22Z</time>
      </trkpt>
      <trkpt lat="48.41053" lon="2.52081">
        <ele>86</ele>
        <time>2017-08-24T08:11:22Z</time>
      </trkpt>
      <trkpt lat="48.41064" lon="2.52085">
        <ele>87</ele>
        <time>2017-08-24T08:13:22Z</time>
      </trkpt>
      <trkpt lat="48.41082" lon="2.52074">
        <ele>88</ele>
        <time>2017-08-24T08:15:22Z</time>
      </trkpt>
      <trkpt lat="48.41099" lon="2.52069">
        <ele>90</ele>
        <time>2017-08-24T08:17:22Z</time>
      </trkpt>
      <trkpt lat="48.41113" lon="2.52068">
        <ele>91</ele>
        <time>2017-08-24T08:19:22Z</time>
      </trkpt>
      <trkpt lat="48.41131" lon="2.5208">
        <ele>94</ele>
        <time>2017-08-24T08:21:22Z</time>
      </trkpt>
      <trkpt lat="48.41145" lon="2.5209">
        <ele>96</ele>
        <time>2017-08-24T08:23:22Z</time>
      </trkpt>
      <trkpt lat="48.41158" lon="2.52094">
        <ele>98</ele>
        <time>2017-08-24T08:25:22Z</time>
      </trkpt>
      <trkpt lat="48.41175" lon="2.52086">
        <ele>99</ele>
        <time>2017-08-24T08:27:22Z</time>
      </trkpt>
      <trkpt lat="48.41193" lon="2.52065">
        <ele>101</ele>
        <time>2017-08-24T08:29:22Z</time>
      </trkpt>
      <trkpt lat="48.41207" lon="2.52052">
        <ele>103</ele>
        <time>2017-08-24T08:31:22Z</time>
      </trkpt>
      <trkpt lat="48.4122" lon="2.52054">
        <ele>105</ele>
        <time>2017-08-24T08:33:22Z</time>
      </trkpt>
      <trkpt lat="48.4123" lon="2.52073">
        <ele>106</ele>
        <time>2017-08-24T08:35:22Z</time>
      </trkpt>
      <trkpt lat="48.41232" lon="2.52091">
        <ele>107</ele>
        <time>2017-08-24T08:37:22Z</time>
      </trkpt>
      <trkpt lat="48.41226" lon="2.52108">
        <ele>107</ele>
        <time>2017-08-24T08:39:22Z</time>
      </trkpt>
      <trkpt lat="48.41222" lon="2.52125">
        <ele>108</ele>
        <time>2017-08-24T08:41:22Z</time>
      </trkpt>
      <trkpt lat="48.41229" lon="2.52146">
        <ele>110</ele>
        <time>2017-08-24T08:43:22Z</time>
      </trkpt>
      <trkpt lat="48.41233" lon="2.52164">
        <ele>111</ele>
        <time>2017-08-24T08:45:22Z</time>
      </trkpt>
      <trkpt lat="48.41245" lon="2.52183">
        <ele>112</ele>
        <time>2017-08-24T08:47:22Z</time>
      </trkpt>
      <trkpt lat="48.41253" lon="2.52207">
        <ele>113</ele>
        <time>2017-08-24T08:49:22Z</time>
      </trkpt>
      <trkpt lat="48.41263" lon="2.52228">
        <ele>114</ele>
        <time>2017-08-24T08:51:22Z</time>
      </trkpt>
      <trkpt lat="48.41271" lon="2.5225">
        <ele>115</ele>
        <time>2017-08-24T08:53:22Z</time>
      </trkpt>
      <trkpt lat="48.41281" lon="2.52267">
        <ele>115</ele>
        <time>2017-08-24T08:55:22Z</time>
      </trkpt>
      <trkpt lat="48.41286" lon="2.52293">
        <ele>115</ele>
        <time>2017-08-24T08:57:22Z</time>
      </trkpt>
      <trkpt lat="48.41292" lon="2.52313">
        <ele>115</ele>
        <time>2017-08-24T08:59:22Z</time>
      </trkpt>
      <trkpt lat="48.41291" lon="2.52343">
        <ele>113</ele>
        <time>2017-08-24T09:01:22Z</time>
      </trkpt>
      <trkpt lat="48.41292" lon="2.52362">
        <ele>112</ele>
        <time>2017-08-24T09:03:22Z</time>
      </trkpt>
      <trkpt lat="48.41289" lon="2.52385">
        <ele>109</ele>
        <time>2017-08-24T09:05:22Z</time>
      </trkpt>
      <trkpt lat="48.41294" lon="2.52407">
        <ele>108</ele>
        <time>2017-08-24T09:07:22Z</time>
      </trkpt>
      <trkpt lat="48.41286" lon="2.52429">
        <ele>106</ele>
        <time>2017-08-24T09:09:22Z</time>
      </trkpt>
      <trkpt lat="48.41274" lon="2.52453">
        <ele>104</ele>
        <time>2017-08-24T09:11:22Z</time>
      </trkpt>
      <trkpt lat="48.41272" lon="2.52477">
        <ele>102</ele>
        <time>2017-08-24T09:13:22Z</time>
      </trkpt>
      <trkpt lat="48.4126" lon="2.52492">
        <ele>100</ele>
        <time>2017-08-24T09:15:22Z</time>
      </trkpt>
      <trkpt lat="48.4125" lon="2.52515">
        <ele>98</ele>
        <time>2017-08-24T09:17:22Z</time>
      </trkpt>
      <trkpt lat="48.4124" lon="2.52537">
        <ele>97</ele>
        <time>2017-08-24T09:19:22Z</time>
      </trkpt>
      <trkpt lat="48.41227" lon="2.52547">
        <ele>97</ele>
        <time>2017-08-24T09:21:22Z</time>
      </trkpt>
      <trkpt lat="48.41213" lon="2.52564">
        <ele>96</ele>
        <time>2017-08-24T09:23:22Z</time>
      </trkpt>
      <trkpt lat="48.41205" lon="2.52587">
        <ele>95</ele>
        <time>2017-08-24T09:25:22Z</time>
      </trkpt>
      <trkpt lat="48.41193" lon="2.52606">
        <ele>94</ele>
        <time>2017-08-24T09:27:22Z</time>
      </trkpt>
      <trkpt lat="48.41183" lon="2.52622">
        <ele>92</ele>
        <time>2017-08-24T09:29:22Z</time>
      </trkpt>
      <trkpt lat="48.41171" lon="2.52624">
        <ele>92</ele>
        <time>2017-08-24T09:31:22Z</time>
      </trkpt>
      <trkpt lat="48.41163" lon="2.52639">
        <ele>90</ele>
        <time>2017-08-24T09:33:22Z</time>
      </trkpt>
      <trkpt lat="48.41156" lon="2.52658">
        <ele>89</ele>
        <time>2017-08-24T09:35:22Z</time>
      </trkpt>
      <trkpt lat="48.41149" lon="2.52686">
        <ele>87</ele>
        <time>2017-08-24T09:37:22Z</time>
      </trkpt>
      <trkpt lat="48.4114" lon="2.52713">
        <ele>85</ele>
        <time>2017-08-24T09:39:22Z</time>
      </trkpt>
      <trkpt lat="48.41137" lon="2.52733">
        <ele>84</ele>
        <time>2017-08-24T09:41:22Z</time>
      </trkpt>
      <trkpt lat="48.41139" lon="2.52768">
        <ele>82</ele>
        <time>2017-08-24T09:43:22Z</time>
      </trkpt>
      <trkpt lat="48.41142" lon="2.52794">
        <ele>81</ele>
        <time>2017-08-24T09:45:22Z</time>
      </trkpt>
      <trkpt lat="48.41148" lon="2.52827">
        <ele>81</ele>
        <time>2017-08-24T09:47:22Z</time>
      </trkpt>
      <trkpt lat="48.41153" lon="2.5286">
        <ele>80</ele>
        <time>2017-08-24T09:49:22Z</time>
      </trkpt>
      <trkpt lat="48.41161" lon="2.52902">
        <ele>79</ele>
        <time>2017-08-24T09:51:22Z</time>
      </trkpt>
      <trkpt lat="48.41168" lon="2.52945">
        <ele>78</ele>
        <time>2017-08-24T09:53:22Z</time>
      </trkpt>
      <trkpt lat="48.41173" lon="2.52978">
        <ele>78</ele>
        <time>2017-08-24T09:55:22Z</time>
      </trkpt>
      <trkpt lat="48.41175" lon="2.53014">
        <ele>78</ele>
        <time>2017-08-24T09:57:22Z</time>
      </trkpt>
      <trkpt lat="48.41177" lon="2.53036">
        <ele>78</ele>
        <time>2017-08-24T09:59:22Z</time>
      </trkpt>
      <trkpt lat="48.41171" lon="2.5306">
        <ele>77</ele>
        <time>2017-08-24T10:01:22Z</time>
      </trkpt>
      <trkpt lat="48.41163" lon="2.53087">
        <ele>76</ele>
        <time>2017-08-24T10:03:22Z</time>
      </trkpt>
      <trkpt lat="48.41151" lon="2.53116">
        <ele>76</ele>
        <time>2017-08-24T10:05:22Z</time>
      </trkpt>
      <trkpt lat="48.41136" lon="2.53104">
        <ele>76</ele>
        <time>2017-08-24T10:07:22Z</time>
      </trkpt>
      <trkpt lat="48.41117" lon="2.53095">
        <ele>76</ele>
        <time>2017-08-24T10:09:22Z</time>
      </trkpt>
      <trkpt lat="48.41101" lon="2.53093">
        <ele>75</ele>
        <time>2017-08-24T10:11:22Z</time>
      </trkpt>
      <trkpt lat="48.41085" lon="2.53086">
        <ele>75</ele>
        <time>2017-08-24T10:13:22Z</time>
      </trkpt>
      <trkpt lat="48.41073" lon="2.53075">
        <ele>76</ele>
        <time>2017-08-24T10:15:22Z</time>
      </trkpt>
      <trkpt lat="48.41058" lon="2.5307">
        <ele>77</ele>
        <time>2017-08-24T10:17:22Z</time>
      </trkpt>
      <trkpt lat="48.41045" lon="2.53072">
        <ele>77</ele>
        <time>2017-08-24T10:19:22Z</time>
      </trkpt>
      <trkpt lat="48.4104" lon="2.53102">
        <ele>77</ele>
        <time>2017-08-24T10:21:22Z</time>
      </trkpt>
      <trkpt lat="48.41034" lon="2.53143">
        <ele>77</ele>
        <time>2017-08-24T10:23:22Z</time>
      </trkpt>
      <trkpt lat="48.41032" lon="2.53183">
        <ele>77</ele>
        <time>2017-08-24T10:25:22Z</time>
      </trkpt>
      <trkpt lat="48.41024" lon="2.53235">
        <ele>78</ele>
        <time>2017-08-24T10:27:22Z</time>
      </trkpt>
      <trkpt lat="48.41015" lon="2.53287">
        <ele>78</ele>
        <time>2017-08-24T10:29:22Z</time>
      </trkpt>
      <trkpt lat="48.4101" lon="2.53345">
        <ele>79</ele>
        <time>2017-08-24T10:31:22Z</time>
      </trkpt>
      <trkpt lat="48.41004" lon="2.53381">
        <ele>79</ele>
        <time>2017-08-24T10:33:22Z</time>
      </trkpt>
      <trkpt lat="48.41" lon="2.53415">
        <ele>79</ele>
        <time>2017-08-24T10:35:22Z</time>
      </trkpt>
      <trkpt lat="48.40994" lon="2.53452">
        <ele>78</ele>
        <time>2017-08-24T10:37:22Z</time>
      </trkpt>
      <trkpt lat="48.4099" lon="2.53482">
        <ele>77</ele>
        <time>2017-08-24T10:39:22Z</time>
      </trkpt>
      <trkpt lat="48.40982" lon="2.53529">
        <ele>77</ele>
        <time>2017-08-24T10:41:22Z</time>
      </trkpt>
      <trkpt lat="48.40968" lon="2.53534">
        <ele>77</ele>
        <time>2017-08-24T10:43:22Z</time>
      </trkpt>
      <trkpt lat="48.40957" lon="2.53548">
        <ele>77</ele>
        <time>2017-08-24T10:45:22Z</time>
      </trkpt>
      <trkpt lat="48.40944" lon="2.53566">
        <ele>77</ele>
        <time>2017-08-24T10:47:22Z</time>
      </trkpt>
      <trkpt lat="48.40933" lon="2.53585">
        <ele>78</ele>
        <time>2017-08-24T10:49:22Z</time>
      </trkpt>
      <trkpt lat="48.40918" lon="2.53605">
        <ele>78</ele>
        <time>2017-08-24T10:51:22Z</time>
      </trkpt>
      <trkpt lat="48.40902" lon="2.5361">
        <ele>78</ele>
        <time>2017-08-24T10:53:22Z</time>
      </trkpt>
      <trkpt lat="48.40876" lon="2.53611">
        <ele>78</ele>
        <time>2017-08-24T10:55:22Z</time>
      </trkpt>
      <trkpt lat="48.40848" lon="2.53607">
        <ele>77</ele>
        <time>2017-08-24T10:57:22Z</time>
      </trkpt>
      <trkpt lat="48.40823" lon="2.53604">
        <ele>76</ele>
        <time>2017-08-24T10:59:22Z</time>
      </trkpt>
      <trkpt lat="48.40802" lon="2.53594">
        <ele>75</ele>
        <time>2017-08-24T11:01:22Z</time>
      </trkpt>
      <trkpt lat="48.40774" lon="2.53589">
        <ele>75</ele>
        <time>2017-08-24T11:03:22Z</time>
      </trkpt>
      <trkpt lat="48.40752" lon="2.53583">
        <ele>75</ele>
        <time>2017-08-24T11:05:22Z</time>
      </trkpt>
      <trkpt lat="48.40733" lon="2.53574">
        <ele>76</ele>
        <time>2017-08-24T11:07:22Z</time>
      </trkpt>
      <trkpt lat="48.40719" lon="2.53555">
        <ele>76</ele>
        <time>2017-08-24T11:09:22Z</time>
      </trkpt>
      <trkpt lat="48.40702" lon="2.53543">
        <ele>77</ele>
        <time>2017-08-24T11:11:22Z</time>
      </trkpt>
      <trkpt lat="48.4069" lon="2.53532">
        <ele>78</ele>
        <time>2017-08-24T11:13:22Z</time>
      </trkpt>
      <trkpt lat="48.4067" lon="2.53526">
        <ele>78</ele>
        <time>2017-08-24T11:15:22Z</time>
      </trkpt>
      <trkpt lat="48.40648" lon="2.53518">
        <ele>81</ele>
        <time>2017-08-24T11:17:22Z</time>
      </trkpt>
      <trkpt lat="48.40633" lon="2.5351">
        <ele>83</ele>
        <time>2017-08-24T11:19:22Z</time>
      </trkpt>
      <trkpt lat="48.40613" lon="2.53509">
        <ele>86</ele>
        <time>2017-08-24T11:21:22Z</time>
      </trkpt>
      <trkpt lat="48.40612" lon="2.53531">
        <ele>86</ele>
        <time>2017-08-24T11:23:22Z</time>
      </trkpt>
      <trkpt lat="48.40616" lon="2.53565">
        <ele>86</ele>
        <time>2017-08-24T11:25:22Z</time>
      </trkpt>
      <trkpt lat="48.40623" lon="2.53603">
        <ele>86</ele>
        <time>2017-08-24T11:27:22Z</time>
      </trkpt>
      <trkpt lat="48.40633" lon="2.53638">
        <ele>84</ele>
        <time>2017-08-24T11:29:22Z</time>
      </trkpt>
      <trkpt lat="48.40639" lon="2.5367">
        <ele>83</ele>
        <time>2017-08-24T11:31:22Z</time>
      </trkpt>
      <trkpt lat="48.40616" lon="2.53679">
        <ele>86</ele>
        <time>2017-08-24T11:33:22Z</time>
      </trkpt>
      <trkpt lat="48.40616" lon="2.53711">
        <ele>85</ele>
        <time>2017-08-24T11:35:22Z</time>
      </trkpt>
      <trkpt lat="48.40621" lon="2.53762">
        <ele>84</ele>
        <time>2017-08-24T11:37:22Z</time>
      </trkpt>
      <trkpt lat="48.40622" lon="2.53793">
        <ele>84</ele>
        <time>2017-08-24T11:39:22Z</time>
      </trkpt>
      <trkpt lat="48.40624" lon="2.53823">
        <ele>84</ele>
        <time>2017-08-24T11:41:22Z</time>
      </trkpt>
      <trkpt lat="48.40627" lon="2.53852">
        <ele>83</ele>
        <time>2017-08-24T11:43:22Z</time>
      </trkpt>
      <trkpt lat="48.40623" lon="2.53876">
        <ele>83</ele>
        <time>2017-08-24T11:45:22Z</time>
      </trkpt>
      <trkpt lat="48.40613" lon="2.53901">
        <ele>82</ele>
        <time>2017-08-24T11:47:22Z</time>
      </trkpt>
      <trkpt lat="48.40603" lon="2.53923">
        <ele>82</ele>
        <time>2017-08-24T11:49:22Z</time>
      </trkpt>
      <trkpt lat="48.40601" lon="2.53948">
        <ele>81</ele>
        <time>2017-08-24T11:51:22Z</time>
      </trkpt>
      <trkpt lat="48.40596" lon="2.5397">
        <ele>81</ele>
        <time>2017-08-24T11:53:22Z</time>
      </trkpt>
      <trkpt lat="48.40593" lon="2.53992">
        <ele>80</ele>
        <time>2017-08-24T11:55:22Z</time>
      </trkpt>
      <trkpt lat="48.40595" lon="2.54021">
        <ele>80</ele>
        <time>2017-08-24T11:57:22Z</time>
      </trkpt>
      <trkpt lat="48.40599" lon="2.54051">
        <ele>80</ele>
        <time>2017-08-24T11:59:22Z</time>
      </trkpt>
      <trkpt lat="48.40595" lon="2.54076">
        <ele>80</ele>
        <time>2017-08-24T12:01:22Z</time>
      </trkpt>
      <trkpt lat="48.40592" lon="2.54098">
        <ele>80</ele>
        <time>2017-08-24T12:03:22Z</time>
      </trkpt>
      <trkpt lat="48.40591" lon="2.54119">
        <ele>81</ele>
        <time>2017-08-24T12:05:22Z</time>
      </trkpt>
      <trkpt lat="48.40573" lon="2.54144">
        <ele>84</ele>
        <time>2017-08-24T12:07:22Z</time>
      </trkpt>
      <trkpt lat="48.40596" lon="2.54149">
        <ele>82</ele>
        <time>2017-08-24T12:09:22Z</time>
      </trkpt>
      <trkpt lat="48.40616" lon="2.54144">
        <ele>81</ele>
        <time>2017-08-24T12:11:22Z</time>
      </trkpt>
      <trkpt lat="48.4062" lon="2.54187">
        <ele>81</ele>
        <time>2017-08-24T12:13:22Z</time>
      </trkpt>
      <trkpt lat="48.40625" lon="2.54238">
        <ele>81</ele>
        <time>2017-08-24T12:15:22Z</time>
      </trkpt>
      <trkpt lat="48.40633" lon="2.54282">
        <ele>81</ele>
        <time>2017-08-24T12:17:22Z</time>
      </trkpt>
      <trkpt lat="48.40643" lon="2.54325">
        <ele>80</ele>
        <time>2017-08-24T12:19:22Z</time>
      </trkpt>
      <trkpt lat="48.40654" lon="2.54357">
        <ele>81</ele>
        <time>2017-08-24T12:21:22Z</time>
      </trkpt>
      <trkpt lat="48.40665" lon="2.54392">
        <ele>82</ele>
        <time>2017-08-24T12:23:22Z</time>
      </trkpt>
      <trkpt lat="48.40673" lon="2.54432">
        <ele>83</ele>
        <time>2017-08-24T12:25:22Z</time>
      </trkpt>
      <trkpt lat="48.40678" lon="2.5447">
        <ele>82</ele>
        <time>2017-08-24T12:27:22Z</time>
      </trkpt>
      <trkpt lat="48.40678" lon="2.54496">
        <ele>82</ele>
        <time>2017-08-24T12:29:22Z</time>
      </trkpt>
      <trkpt lat="48.40674" lon="2.54531">
        <ele>81</ele>
        <time>2017-08-24T12:31:22Z</time>
      </trkpt>
      <trkpt lat="48.40676" lon="2.5457">
        <ele>80</ele>
        <time>2017-08-24T12:33:22Z</time>
      </trkpt>
      <trkpt lat="48.40678" lon="2.546">
        <ele>79</ele>
        <time>2017-08-24T12:35:22Z</time>
      </trkpt>
      <trkpt lat="48.40669" lon="2.54628">
        <ele>79</ele>
        <time>2017-08-24T12:37:22Z</time>
      </trkpt>
      <trkpt lat="48.40657" lon="2.54662">
        <ele>80</ele>
        <time>2017-08-24T12:39:22Z</time>
      </trkpt>
      <trkpt lat="48.4065" lon="2.54689">
        <ele>80</ele>
        <time>2017-08-24T12:41:22Z</time>
      </trkpt>
      <trkpt lat="48.40653" lon="2.54716">
        <ele>80</ele>
        <time>2017-08-24T12:43:22Z</time>
      </trkpt>
      <trkpt lat="48.40644" lon="2.54738">
        <ele>80</ele>
        <time>2017-08-24T12:45:22Z</time>
      </trkpt>
      <trkpt lat="48.40623" lon="2.5476">
        <ele>80</ele>
        <time>2017-08-24T12:47:22Z</time>
      </trkpt>
      <trkpt lat="48.40594" lon="2.54789">
        <ele>80</ele>
        <time>2017-08-24T12:49:22Z</time>
      </trkpt>
      <trkpt lat="48.40571" lon="2.54812">
        <ele>80</ele>
        <time>2017-08-24T12:51:22Z</time>
      </trkpt>
      <trkpt lat="48.40554" lon="2.54832">
        <ele>80</ele>
        <time>2017-08-24T12:53:22Z</time>
      </trkpt>
      <trkpt lat="48.40536" lon="2.54853">
        <ele>80</ele>
        <time>2017-08-24T12:55:22Z</time>
      </trkpt>
      <trkpt lat="48.40519" lon="2.54871">
        <ele>80</ele>
        <time>2017-08-24T12:57:22Z</time>
      </trkpt>
      <trkpt lat="48.40502" lon="2.54889">
        <ele>80</ele>
        <time>2017-08-24T12:59:22Z</time>
      </trkpt>
      <trkpt lat="48.40487" lon="2.54877">
        <ele>80</ele>
        <time>2017-08-24T13:01:22Z</time>
      </trkpt>
      <trkpt lat="48.40468" lon="2.54856">
        <ele>81</ele>
        <time>2017-08-24T13:03:22Z</time>
      </trkpt>
      <trkpt lat="48.40449" lon="2.54841">
        <ele>82</ele>
        <time>2017-08-24T13:05:22Z</time>
      </trkpt>
      <trkpt lat="48.40434" lon="2.54823">
        <ele>83</ele>
        <time>2017-08-24T13:07:22Z</time>
      </trkpt>
      <trkpt lat="48.40415" lon="2.54804">
        <ele>84</ele>
        <time>2017-08-24T13:09:22Z</time>
      </trkpt>
      <trkpt lat="48.40398" lon="2.54785">
        <ele>86</ele>
        <time>2017-08-24T13:11:22Z</time>
      </trkpt>
      <trkpt lat="48.40383" lon="2.54763">
        <ele>88</ele>
        <time>2017-08-24T13:13:22Z</time>
      </trkpt>
      <trkpt lat="48.4037" lon="2.54745">
        <ele>89</ele>
        <time>2017-08-24T13:15:22Z</time>
      </trkpt>
      <trkpt lat="48.40353" lon="2.54729">
        <ele>91</ele>
        <time>2017-08-24T13:17:22Z</time>
      </trkpt>
      <trkpt lat="48.40336" lon="2.54721">
        <ele>93</ele>
        <time>2017-08-24T13:19:22Z</time>
      </trkpt>
      <trkpt lat="48.40321" lon="2.54722">
        <ele>93</ele>
        <time>2017-08-24T13:21:22Z</time>
      </trkpt>
      <trkpt lat="48.40308" lon="2.54722">
        <ele>93</ele>
        <time>2017-08-24T13:23:22Z</time>
      </trkpt>
      <trkpt lat="48.40296" lon="2.54732">
        <ele>93</ele>
        <time>2017-08-24T13:25:22Z</time>
      </trkpt>
      <trkpt lat="48.40283" lon="2.54747">
        <ele>94</ele>
        <time>2017-08-24T13:27:22Z</time>
      </trkpt>
      <trkpt lat="48.40282" lon="2.54768">
        <ele>95</ele>
        <time>2017-08-24T13:29:22Z</time>
      </trkpt>
      <trkpt lat="48.40281" lon="2.54795">
        <ele>96</ele>
        <time>2017-08-24T13:31:22Z</time>
      </trkpt>
      <trkpt lat="48.40269" lon="2.54814">
        <ele>97</ele>
        <time>2017-08-24T13:33:22Z</time>
      </trkpt>
      <trkpt lat="48.40257" lon="2.54811">
        <ele>98</ele>
        <time>2017-08-24T13:35:22Z</time>
      </trkpt>
      <trkpt lat="48.40247" lon="2.54784">
        <ele>96</ele>
        <time>2017-08-24T13:37:22Z</time>
      </trkpt>
      <trkpt lat="48.40242" lon="2.54761">
        <ele>94</ele>
        <time>2017-08-24T13:39:22Z</time>
      </trkpt>
      <trkpt lat="48.40235" lon="2.54741">
        <ele>93</ele>
        <time>2017-08-24T13:41:22Z</time>
      </trkpt>
      <trkpt lat="48.40222" lon="2.54733">
        <ele>91</ele>
        <time>2017-08-24T13:43:22Z</time>
      </trkpt>
      <trkpt lat="48.40211" lon="2.54743">
        <ele>89</ele>
        <time>2017-08-24T13:45:22Z</time>
      </trkpt>
      <trkpt lat="48.40203" lon="2.54733">
        <ele>88</ele>
        <time>2017-08-24T13:47:22Z</time>
      </trkpt>
      <trkpt lat="48.40191" lon="2.54735">
        <ele>86</ele>
        <time>2017-08-24T13:49:22Z</time>
      </trkpt>
      <trkpt lat="48.40183" lon="2.54721">
        <ele>85</ele>
        <time>2017-08-24T13:51:22Z</time>
      </trkpt>
      <trkpt lat="48.40172" lon="2.54729">
        <ele>83</ele>
        <time>2017-08-24T13:53:22Z</time>
      </trkpt>
      <trkpt lat="48.40164" lon="2.54716">
        <ele>82</ele>
        <time>2017-08-24T13:55:22Z</time>
      </trkpt>
      <trkpt lat="48.40151" lon="2.54713">
        <ele>81</ele>
        <time>2017-08-24T13:57:22Z</time>
      </trkpt>
      <trkpt lat="48.40129" lon="2.54671">
        <ele>79</ele>
        <time>2017-08-24T13:59:22Z</time>
      </trkpt>
    </trkseg>
  </trk>
</gpx>